AUA28 KMCO-LOWW
Flight info
| Callsign | AUA28 |
|---|---|
| Flight time | 10h 6m |
| Altitude | 35000 |
| Route | MZULO3 LENDS COACH EAAGL HAAYY AZEZU KN57E LACKS JOBOC 4160N 4250N 4340N 4330N 4320N MUDOS ROXER NOLSA MARIO SINDO PIVUS DIBER NETUP STP RAPED PIGOS EKSID NOSTA LUKIM MALUG ARALD ABTAN |
| Aircraft | A332/H-SDE3GHIJ2J3J5M1RVWXY/LB2D1 |
Departure
| Time | 2026-04-25 12:56 |
|---|---|
| Airport | Orlando International Airport (KMCO) |
Arrival
| Time | 2026-04-25 23:02 |
|---|---|
| Airport | Vienna International Airport (LOWW) |
| Time | Latitude | Longitude | Altitude | Speed | Heading |
|---|---|---|---|---|---|
| 2026-04-25 11:59 | 28.42892 | -81.31553 | 100 ft | 0 kts | 192° |
| 2026-04-25 12:30 | 28.42915 | -81.31546 | 98 ft | 4 kts | 205° |
| 2026-04-25 12:30 | 28.42936 | -81.31529 | 99 ft | 4 kts | 239° |
| 2026-04-25 12:31 | 28.42941 | -81.31506 | 97 ft | 2 kts | 293° |
| 2026-04-25 12:31 | 28.42940 | -81.31505 | 98 ft | 1 kts | 294° |
| 2026-04-25 12:36 | 28.42946 | -81.31520 | 97 ft | 5 kts | 290° |
| 2026-04-25 12:37 | 28.42952 | -81.31554 | 96 ft | 4 kts | 275° |
| 2026-04-25 12:37 | 28.42950 | -81.31584 | 100 ft | 3 kts | 263° |
| 2026-04-25 12:37 | 28.42946 | -81.31608 | 101 ft | 3 kts | 261° |
| 2026-04-25 12:37 | 28.42943 | -81.31627 | 99 ft | 2 kts | 260° |
| 2026-04-25 12:38 | 28.42942 | -81.31638 | 101 ft | 1 kts | 259° |
| 2026-04-25 12:38 | 28.42941 | -81.31639 | 101 ft | 0 kts | 259° |
| 2026-04-25 12:38 | 28.42936 | -81.31679 | 101 ft | 8 kts | 264° |
| 2026-04-25 12:38 | 28.42938 | -81.31715 | 104 ft | 0 kts | 281° |
| 2026-04-25 12:39 | 28.42940 | -81.31724 | 105 ft | 5 kts | 285° |
| 2026-04-25 12:40 | 28.42965 | -81.31783 | 105 ft | 10 kts | 301° |
| 2026-04-25 12:40 | 28.42960 | -81.31839 | 104 ft | 6 kts | 213° |
| 2026-04-25 12:40 | 28.42923 | -81.31840 | 104 ft | 5 kts | 178° |
| 2026-04-25 12:40 | 28.42888 | -81.31838 | 104 ft | 5 kts | 174° |
| 2026-04-25 12:41 | 28.42844 | -81.31835 | 103 ft | 10 kts | 179° |
| 2026-04-25 12:41 | 28.42754 | -81.31833 | 105 ft | 15 kts | 178° |
| 2026-04-25 12:41 | 28.42631 | -81.31833 | 106 ft | 19 kts | 180° |
| 2026-04-25 12:41 | 28.42499 | -81.31833 | 105 ft | 19 kts | 180° |
| 2026-04-25 12:42 | 28.42405 | -81.31833 | 105 ft | 9 kts | 179° |
| 2026-04-25 12:42 | 28.42385 | -81.31829 | 107 ft | 9 kts | 166° |
| 2026-04-25 12:42 | 28.42349 | -81.31736 | 103 ft | 10 kts | 91° |
| 2026-04-25 12:42 | 28.42350 | -81.31622 | 102 ft | 19 kts | 89° |
| 2026-04-25 12:43 | 28.42352 | -81.31442 | 100 ft | 25 kts | 89° |
| 2026-04-25 12:43 | 28.42348 | -81.31250 | 98 ft | 24 kts | 95° |
| 2026-04-25 12:43 | 28.42321 | -81.30904 | 99 ft | 21 kts | 84° |
| 2026-04-25 12:44 | 28.42331 | -81.30770 | 101 ft | 15 kts | 87° |
| 2026-04-25 12:44 | 28.42337 | -81.30687 | 100 ft | 0 kts | 85° |
| 2026-04-25 12:45 | 28.42338 | -81.30670 | 100 ft | 7 kts | 85° |
| 2026-04-25 12:46 | 28.42342 | -81.30612 | 101 ft | 15 kts | 85° |
| 2026-04-25 12:46 | 28.42353 | -81.30456 | 98 ft | 23 kts | 85° |
| 2026-04-25 12:46 | 28.42359 | -81.30278 | 101 ft | 22 kts | 89° |
| 2026-04-25 12:46 | 28.42361 | -81.30109 | 100 ft | 21 kts | 89° |
| 2026-04-25 12:47 | 28.42363 | -81.29971 | 98 ft | 11 kts | 89° |
| 2026-04-25 12:47 | 28.42364 | -81.29887 | 98 ft | 10 kts | 89° |
| 2026-04-25 12:47 | 28.42386 | -81.29816 | 99 ft | 9 kts | 46° |
| 2026-04-25 12:47 | 28.42443 | -81.29797 | 100 ft | 8 kts | 2° |
| 2026-04-25 12:48 | 28.42498 | -81.29796 | 100 ft | 8 kts | 0° |
| 2026-04-25 12:48 | 28.42554 | -81.29796 | 100 ft | 10 kts | 359° |
| 2026-04-25 12:48 | 28.42637 | -81.29797 | 101 ft | 12 kts | 359° |
| 2026-04-25 12:48 | 28.42720 | -81.29799 | 102 ft | 12 kts | 359° |
| 2026-04-25 12:49 | 28.42812 | -81.29799 | 100 ft | 17 kts | 359° |
| 2026-04-25 12:49 | 28.42950 | -81.29800 | 101 ft | 21 kts | 359° |
| 2026-04-25 12:49 | 28.43094 | -81.29803 | 100 ft | 20 kts | 359° |
| 2026-04-25 12:49 | 28.43225 | -81.29804 | 99 ft | 10 kts | 359° |
| 2026-04-25 12:50 | 28.43251 | -81.29805 | 99 ft | 0 kts | 359° |
| 2026-04-25 12:51 | 28.43275 | -81.29805 | 98 ft | 10 kts | 359° |
| 2026-04-25 12:51 | 28.43371 | -81.29807 | 101 ft | 15 kts | 359° |
| 2026-04-25 12:51 | 28.43468 | -81.29807 | 99 ft | 12 kts | 359° |
| 2026-04-25 12:51 | 28.43538 | -81.29780 | 99 ft | 10 kts | 55° |
| 2026-04-25 12:52 | 28.43550 | -81.29717 | 101 ft | 4 kts | 87° |
| 2026-04-25 12:53 | 28.43551 | -81.29706 | 102 ft | 5 kts | 87° |
| 2026-04-25 12:53 | 28.43551 | -81.29628 | 103 ft | 10 kts | 95° |
| 2026-04-25 12:54 | 28.43512 | -81.29590 | 102 ft | 6 kts | 166° |
| 2026-04-25 12:54 | 28.43509 | -81.29590 | 102 ft | 0 kts | 167° |
| 2026-04-25 12:55 | 28.43376 | -81.29561 | 105 ft | 42 kts | 170° |
| 2026-04-25 12:55 | 28.43142 | -81.29534 | 103 ft | 62 kts | 178° |
| 2026-04-25 12:55 | 28.42238 | -81.29566 | 102 ft | 132 kts | 180° |
| 2026-04-25 12:55 | 28.41157 | -81.29552 | 171 ft | 173 kts | 178° |
| 2026-04-25 12:56 | 28.39981 | -81.29360 | 846 ft | 166 kts | 159° |
| 2026-04-25 12:56 | 28.38959 | -81.28817 | 1679 ft | 160 kts | 158° |
| 2026-04-25 12:56 | 28.37909 | -81.28362 | 2065 ft | 169 kts | 162° |
| 2026-04-25 12:56 | 28.36762 | -81.27859 | 2245 ft | 184 kts | 158° |
| 2026-04-25 12:57 | 28.35557 | -81.27245 | 2434 ft | 194 kts | 156° |
| 2026-04-25 12:57 | 28.34336 | -81.26501 | 2645 ft | 204 kts | 144° |
| 2026-04-25 12:57 | 28.33366 | -81.25276 | 2879 ft | 216 kts | 124° |
| 2026-04-25 12:57 | 28.32660 | -81.23714 | 3113 ft | 229 kts | 104° |
| 2026-04-25 12:58 | 28.32732 | -81.21904 | 3404 ft | 238 kts | 71° |
| 2026-04-25 12:58 | 28.33374 | -81.20106 | 3644 ft | 254 kts | 66° |
| 2026-04-25 12:58 | 28.34126 | -81.18227 | 3945 ft | 268 kts | 65° |
| 2026-04-25 12:58 | 28.34919 | -81.16323 | 4656 ft | 264 kts | 63° |
| 2026-04-25 12:59 | 28.35703 | -81.14457 | 5377 ft | 263 kts | 65° |
| 2026-04-25 12:59 | 28.36424 | -81.12519 | 5867 ft | 270 kts | 68° |
| 2026-04-25 12:59 | 28.37069 | -81.10492 | 6428 ft | 275 kts | 69° |
| 2026-04-25 12:59 | 28.37807 | -81.08486 | 7036 ft | 276 kts | 64° |
| 2026-04-25 13:00 | 28.38646 | -81.06499 | 7606 ft | 281 kts | 63° |
| 2026-04-25 13:00 | 28.39215 | -81.05168 | 7980 ft | 284 kts | 63° |
| 2026-04-25 13:00 | 28.40328 | -81.02448 | 8763 ft | 289 kts | 64° |
| 2026-04-25 13:00 | 28.41137 | -81.00341 | 9370 ft | 293 kts | 65° |
| 2026-04-25 13:01 | 28.41910 | -80.98190 | 9987 ft | 295 kts | 66° |
| 2026-04-25 13:01 | 28.42644 | -80.95984 | 10468 ft | 302 kts | 68° |
| 2026-04-25 13:01 | 28.43409 | -80.93702 | 10725 ft | 316 kts | 66° |
| 2026-04-25 13:01 | 28.44257 | -80.91336 | 10999 ft | 330 kts | 65° |
| 2026-04-25 13:02 | 28.45191 | -80.88901 | 11306 ft | 342 kts | 64° |
| 2026-04-25 13:02 | 28.46207 | -80.86399 | 11608 ft | 353 kts | 63° |
| 2026-04-25 13:02 | 28.47264 | -80.83832 | 11898 ft | 365 kts | 65° |
| 2026-04-25 13:02 | 28.47967 | -80.81003 | 12120 ft | 380 kts | 82° |
| 2026-04-25 13:03 | 28.48240 | -80.77995 | 12519 ft | 386 kts | 83° |
| 2026-04-25 13:03 | 28.48496 | -80.74925 | 12837 ft | 394 kts | 83° |
| 2026-04-25 13:03 | 28.48774 | -80.71798 | 13218 ft | 400 kts | 81° |
| 2026-04-25 13:03 | 28.49147 | -80.68652 | 13690 ft | 403 kts | 81° |
| 2026-04-25 13:04 | 28.49530 | -80.65491 | 14082 ft | 406 kts | 81° |
| 2026-04-25 13:04 | 28.49900 | -80.62341 | 14444 ft | 409 kts | 81° |
| 2026-04-25 13:04 | 28.50269 | -80.59120 | 14844 ft | 412 kts | 81° |
| 2026-04-25 13:04 | 28.50638 | -80.55837 | 15237 ft | 415 kts | 81° |
| 2026-04-25 13:05 | 28.50997 | -80.52609 | 15651 ft | 418 kts | 81° |
| 2026-04-25 13:05 | 28.51361 | -80.49318 | 16018 ft | 422 kts | 81° |
| 2026-04-25 13:05 | 28.51726 | -80.45993 | 16421 ft | 425 kts | 81° |
| 2026-04-25 13:05 | 28.52093 | -80.42641 | 16808 ft | 428 kts | 81° |
| 2026-04-25 13:06 | 28.52461 | -80.39263 | 17183 ft | 431 kts | 81° |
| 2026-04-25 13:06 | 28.52831 | -80.35867 | 17563 ft | 434 kts | 81° |
| 2026-04-25 13:06 | 28.53205 | -80.32449 | 17945 ft | 437 kts | 80° |
| 2026-04-25 13:06 | 28.53789 | -80.29056 | 18288 ft | 438 kts | 71° |
| 2026-04-25 13:07 | 28.54824 | -80.25799 | 18619 ft | 438 kts | 65° |
| 2026-04-25 13:07 | 28.56018 | -80.22611 | 18966 ft | 439 kts | 64° |
| 2026-04-25 13:07 | 28.57242 | -80.19413 | 19310 ft | 441 kts | 64° |
| 2026-04-25 13:07 | 28.58468 | -80.16207 | 19669 ft | 443 kts | 64° |
| 2026-04-25 13:08 | 28.59695 | -80.12985 | 20012 ft | 445 kts | 64° |
| 2026-04-25 13:08 | 28.60909 | -80.09787 | 20377 ft | 446 kts | 64° |
| 2026-04-25 13:08 | 28.62137 | -80.06546 | 20729 ft | 448 kts | 64° |
| 2026-04-25 13:08 | 28.63370 | -80.03285 | 21051 ft | 449 kts | 64° |
| 2026-04-25 13:09 | 28.64609 | -80.00007 | 21393 ft | 451 kts | 64° |
| 2026-04-25 13:09 | 28.65852 | -79.96716 | 21726 ft | 453 kts | 64° |
| 2026-04-25 13:09 | 28.67097 | -79.93412 | 22044 ft | 455 kts | 64° |
| 2026-04-25 13:09 | 28.68344 | -79.90100 | 22371 ft | 456 kts | 64° |
| 2026-04-25 13:10 | 28.69595 | -79.86774 | 22686 ft | 458 kts | 64° |
| 2026-04-25 13:10 | 28.70856 | -79.83420 | 23001 ft | 460 kts | 64° |
| 2026-04-25 13:10 | 28.72118 | -79.80063 | 23306 ft | 462 kts | 65° |
| 2026-04-25 13:10 | 28.73383 | -79.76693 | 23583 ft | 464 kts | 65° |
| 2026-04-25 13:11 | 28.74653 | -79.73303 | 23827 ft | 466 kts | 65° |
| 2026-04-25 13:11 | 28.75925 | -79.69903 | 24099 ft | 467 kts | 65° |
| 2026-04-25 13:11 | 28.77187 | -79.66531 | 24362 ft | 468 kts | 65° |
| 2026-04-25 13:11 | 28.78464 | -79.63112 | 24618 ft | 470 kts | 65° |
| 2026-04-25 13:12 | 28.79747 | -79.59679 | 24884 ft | 471 kts | 65° |
| 2026-04-25 13:12 | 28.81165 | -79.56313 | 25151 ft | 470 kts | 58° |
| 2026-04-25 13:12 | 28.82928 | -79.53173 | 25405 ft | 470 kts | 53° |
| 2026-04-25 13:12 | 28.84181 | -79.51148 | 25563 ft | 471 kts | 52° |
| 2026-04-25 13:13 | 28.86745 | -79.47084 | 25932 ft | 471 kts | 52° |
| 2026-04-25 13:13 | 28.88664 | -79.44043 | 26176 ft | 473 kts | 52° |
| 2026-04-25 13:13 | 28.90587 | -79.40991 | 26391 ft | 475 kts | 52° |
| 2026-04-25 13:13 | 28.92517 | -79.37920 | 26590 ft | 477 kts | 52° |
| 2026-04-25 13:14 | 28.94427 | -79.34878 | 26820 ft | 478 kts | 52° |
| 2026-04-25 13:14 | 28.96366 | -79.31784 | 27060 ft | 479 kts | 52° |
| 2026-04-25 13:14 | 28.98309 | -79.28680 | 27278 ft | 480 kts | 52° |
| 2026-04-25 13:14 | 29.00255 | -79.25569 | 27518 ft | 482 kts | 52° |
| 2026-04-25 13:15 | 29.01545 | -79.23504 | 27667 ft | 482 kts | 52° |
| 2026-04-25 13:15 | 29.04160 | -79.19318 | 27964 ft | 484 kts | 53° |
| 2026-04-25 13:15 | 29.06121 | -79.16175 | 28184 ft | 485 kts | 53° |
| 2026-04-25 13:15 | 29.08080 | -79.13035 | 28400 ft | 486 kts | 53° |
| 2026-04-25 13:16 | 29.10048 | -79.09877 | 28626 ft | 487 kts | 52° |
| 2026-04-25 13:16 | 29.11993 | -79.06752 | 28917 ft | 487 kts | 52° |
| 2026-04-25 13:16 | 29.13960 | -79.03592 | 29197 ft | 486 kts | 52° |
| 2026-04-25 13:16 | 29.15919 | -79.00444 | 29461 ft | 486 kts | 52° |
| 2026-04-25 13:17 | 29.17880 | -78.97288 | 29762 ft | 485 kts | 52° |
| 2026-04-25 13:17 | 29.19829 | -78.94149 | 30066 ft | 484 kts | 52° |
| 2026-04-25 13:17 | 29.21777 | -78.91010 | 30308 ft | 483 kts | 52° |
| 2026-04-25 13:17 | 29.23725 | -78.87866 | 30536 ft | 483 kts | 52° |
| 2026-04-25 13:18 | 29.25668 | -78.84730 | 30771 ft | 483 kts | 52° |
| 2026-04-25 13:18 | 29.27609 | -78.81594 | 30970 ft | 482 kts | 52° |
| 2026-04-25 13:18 | 29.29526 | -78.78494 | 31187 ft | 482 kts | 53° |
| 2026-04-25 13:18 | 29.31466 | -78.75354 | 31409 ft | 482 kts | 53° |
| 2026-04-25 13:19 | 29.33451 | -78.72264 | 31628 ft | 481 kts | 49° |
| 2026-04-25 13:19 | 29.35726 | -78.69473 | 31843 ft | 478 kts | 40° |
| 2026-04-25 13:19 | 29.38341 | -78.67143 | 32035 ft | 476 kts | 31° |
| 2026-04-25 13:19 | 29.39293 | -78.66472 | 32083 ft | 476 kts | 27° |
| 2026-04-25 13:20 | 29.44318 | -78.63960 | 32376 ft | 474 kts | 18° |
| 2026-04-25 13:20 | 29.47436 | -78.62702 | 32593 ft | 473 kts | 17° |
| 2026-04-25 13:20 | 29.50561 | -78.61504 | 32784 ft | 473 kts | 17° |
| 2026-04-25 13:20 | 29.53690 | -78.60326 | 32979 ft | 473 kts | 17° |
| 2026-04-25 13:21 | 29.56812 | -78.59150 | 33168 ft | 473 kts | 17° |
| 2026-04-25 13:21 | 29.59938 | -78.57962 | 33357 ft | 472 kts | 17° |
| 2026-04-25 13:21 | 29.63015 | -78.56782 | 33549 ft | 472 kts | 17° |
| 2026-04-25 13:21 | 29.66133 | -78.55577 | 33716 ft | 473 kts | 17° |
| 2026-04-25 13:22 | 29.69248 | -78.54366 | 33876 ft | 473 kts | 17° |
| 2026-04-25 13:22 | 29.72365 | -78.53152 | 34044 ft | 472 kts | 17° |
| 2026-04-25 13:22 | 29.75479 | -78.51937 | 34202 ft | 472 kts | 17° |
| 2026-04-25 13:23 | 29.81682 | -78.49513 | 34581 ft | 469 kts | 17° |
| 2026-04-25 13:23 | 29.84771 | -78.48305 | 34753 ft | 468 kts | 17° |
| 2026-04-25 13:23 | 29.87853 | -78.47100 | 34917 ft | 467 kts | 17° |
| 2026-04-25 13:24 | 29.94031 | -78.44681 | 34991 ft | 470 kts | 17° |
| 2026-04-25 13:24 | 30.00229 | -78.42253 | 34991 ft | 470 kts | 17° |
| 2026-04-25 13:25 | 30.06390 | -78.39837 | 34987 ft | 470 kts | 17° |
| 2026-04-25 13:25 | 30.12589 | -78.37400 | 34984 ft | 470 kts | 17° |
| 2026-04-25 13:26 | 30.18776 | -78.34964 | 34988 ft | 470 kts | 17° |
| 2026-04-25 13:26 | 30.24967 | -78.32525 | 34990 ft | 470 kts | 17° |
| 2026-04-25 13:27 | 30.31161 | -78.30085 | 34987 ft | 470 kts | 17° |
| 2026-04-25 13:27 | 30.37349 | -78.27643 | 34986 ft | 470 kts | 17° |
| 2026-04-25 13:28 | 30.43542 | -78.25192 | 34986 ft | 470 kts | 17° |
| 2026-04-25 13:28 | 30.49737 | -78.22736 | 34993 ft | 470 kts | 17° |
| 2026-04-25 13:29 | 30.55931 | -78.20281 | 34989 ft | 470 kts | 17° |
| 2026-04-25 13:29 | 30.62088 | -78.17838 | 34985 ft | 470 kts | 17° |
| 2026-04-25 13:30 | 30.71390 | -78.14137 | 34990 ft | 470 kts | 17° |
| 2026-04-25 13:31 | 30.79633 | -78.10852 | 34991 ft | 470 kts | 17° |
| 2026-04-25 13:31 | 30.85817 | -78.08384 | 34980 ft | 470 kts | 17° |
| 2026-04-25 13:32 | 30.93009 | -78.05508 | 34988 ft | 470 kts | 17° |
| 2026-04-25 13:32 | 30.98189 | -78.03435 | 34985 ft | 470 kts | 17° |
| 2026-04-25 13:33 | 31.04370 | -78.00960 | 34982 ft | 470 kts | 17° |
| 2026-04-25 13:33 | 31.10349 | -77.97866 | 34982 ft | 472 kts | 28° |
| 2026-04-25 13:34 | 31.16003 | -77.93966 | 34978 ft | 473 kts | 30° |
| 2026-04-25 13:34 | 31.21626 | -77.89895 | 34982 ft | 475 kts | 30° |
| 2026-04-25 13:35 | 31.26286 | -77.86500 | 34980 ft | 475 kts | 31° |
| 2026-04-25 13:35 | 31.32809 | -77.81762 | 34983 ft | 475 kts | 31° |
| 2026-04-25 13:36 | 31.38430 | -77.77686 | 34975 ft | 475 kts | 30° |
| 2026-04-25 13:36 | 31.44043 | -77.73616 | 34981 ft | 475 kts | 30° |
| 2026-04-25 13:37 | 31.49665 | -77.69533 | 34972 ft | 474 kts | 30° |
| 2026-04-25 13:37 | 31.55260 | -77.65464 | 34974 ft | 473 kts | 31° |
| 2026-04-25 13:38 | 31.60849 | -77.61390 | 34970 ft | 473 kts | 31° |
| 2026-04-25 13:38 | 31.66440 | -77.57311 | 34973 ft | 473 kts | 31° |
| 2026-04-25 13:39 | 31.72047 | -77.53217 | 34975 ft | 475 kts | 30° |
| 2026-04-25 13:39 | 31.77617 | -77.49141 | 34980 ft | 473 kts | 31° |
| 2026-04-25 13:40 | 31.83199 | -77.45050 | 34976 ft | 473 kts | 31° |
| 2026-04-25 13:40 | 31.88781 | -77.40953 | 34973 ft | 472 kts | 31° |
| 2026-04-25 13:41 | 31.94361 | -77.36853 | 34975 ft | 472 kts | 31° |
| 2026-04-25 13:41 | 31.99942 | -77.32746 | 34974 ft | 472 kts | 31° |
| 2026-04-25 13:42 | 32.05502 | -77.28649 | 34975 ft | 470 kts | 31° |
| 2026-04-25 13:42 | 32.11041 | -77.24560 | 34971 ft | 470 kts | 31° |
| 2026-04-25 13:43 | 32.16593 | -77.20457 | 34975 ft | 471 kts | 31° |
| 2026-04-25 13:43 | 32.22134 | -77.16361 | 34972 ft | 473 kts | 31° |
| 2026-04-25 13:44 | 32.27738 | -77.12284 | 34970 ft | 471 kts | 31° |
| 2026-04-25 13:44 | 32.33325 | -77.08245 | 34971 ft | 470 kts | 31° |
| 2026-04-25 13:45 | 32.38919 | -77.04193 | 34970 ft | 471 kts | 31° |
| 2026-04-25 13:45 | 32.44507 | -77.00133 | 34970 ft | 471 kts | 31° |
| 2026-04-25 13:46 | 32.50052 | -76.96097 | 34969 ft | 470 kts | 31° |
| 2026-04-25 13:46 | 32.55611 | -76.92043 | 34971 ft | 469 kts | 31° |
| 2026-04-25 13:47 | 32.61201 | -76.87957 | 34966 ft | 469 kts | 31° |
| 2026-04-25 13:47 | 32.66723 | -76.83916 | 34967 ft | 470 kts | 31° |
| 2026-04-25 13:48 | 32.72306 | -76.79826 | 34965 ft | 472 kts | 31° |
| 2026-04-25 13:48 | 32.77902 | -76.75720 | 34967 ft | 472 kts | 31° |
| 2026-04-25 13:49 | 32.83481 | -76.71617 | 34965 ft | 472 kts | 31° |
| 2026-04-25 13:49 | 32.89068 | -76.67497 | 34968 ft | 472 kts | 31° |
| 2026-04-25 13:50 | 32.94648 | -76.63381 | 34965 ft | 472 kts | 31° |
| 2026-04-25 13:50 | 33.00156 | -76.59316 | 34966 ft | 471 kts | 31° |
| 2026-04-25 13:51 | 33.05720 | -76.55204 | 34964 ft | 470 kts | 31° |
| 2026-04-25 13:51 | 33.11274 | -76.51093 | 34966 ft | 470 kts | 31° |
| 2026-04-25 13:52 | 33.16833 | -76.46972 | 34960 ft | 471 kts | 31° |
| 2026-04-25 13:52 | 33.22407 | -76.42834 | 34965 ft | 471 kts | 31° |
| 2026-04-25 13:53 | 33.27973 | -76.38695 | 34955 ft | 470 kts | 32° |
| 2026-04-25 13:53 | 33.33527 | -76.34559 | 34961 ft | 470 kts | 31° |
| 2026-04-25 13:54 | 33.39041 | -76.30446 | 34960 ft | 470 kts | 32° |
| 2026-04-25 13:54 | 33.44594 | -76.26299 | 34960 ft | 470 kts | 32° |
| 2026-04-25 13:55 | 33.50134 | -76.22154 | 34957 ft | 468 kts | 32° |
| 2026-04-25 13:55 | 33.55649 | -76.18021 | 34955 ft | 467 kts | 31° |
| 2026-04-25 13:56 | 33.61162 | -76.13884 | 34955 ft | 467 kts | 32° |
| 2026-04-25 13:56 | 33.66682 | -76.09737 | 34953 ft | 468 kts | 31° |
| 2026-04-25 13:57 | 33.72198 | -76.05586 | 34952 ft | 467 kts | 31° |
| 2026-04-25 13:57 | 33.77694 | -76.01441 | 34949 ft | 466 kts | 31° |
| 2026-04-25 13:58 | 33.83188 | -75.97291 | 34949 ft | 466 kts | 31° |
| 2026-04-25 13:58 | 33.88646 | -75.93165 | 34949 ft | 466 kts | 31° |
| 2026-04-25 13:59 | 33.94137 | -75.89007 | 34947 ft | 466 kts | 31° |
| 2026-04-25 13:59 | 33.99623 | -75.84846 | 34947 ft | 465 kts | 30° |
| 2026-04-25 14:00 | 34.03286 | -75.82065 | 34944 ft | 465 kts | 30° |
| 2026-04-25 14:00 | 34.10575 | -75.76520 | 34946 ft | 465 kts | 31° |
| 2026-04-25 14:01 | 34.16056 | -75.72343 | 34947 ft | 466 kts | 31° |
| 2026-04-25 14:01 | 34.21552 | -75.68151 | 34936 ft | 467 kts | 31° |
| 2026-04-25 14:02 | 34.27042 | -75.63955 | 34939 ft | 467 kts | 30° |
| 2026-04-25 14:02 | 34.32533 | -75.59749 | 34938 ft | 467 kts | 31° |
| 2026-04-25 14:03 | 34.38028 | -75.55535 | 34939 ft | 467 kts | 30° |
| 2026-04-25 14:03 | 34.43518 | -75.51321 | 34933 ft | 467 kts | 31° |
| 2026-04-25 14:04 | 34.48978 | -75.47120 | 34930 ft | 467 kts | 30° |
| 2026-04-25 14:04 | 34.54465 | -75.42892 | 34930 ft | 467 kts | 31° |
| 2026-04-25 14:05 | 34.59960 | -75.38655 | 34926 ft | 468 kts | 30° |
| 2026-04-25 14:05 | 34.65457 | -75.34406 | 34930 ft | 468 kts | 30° |
| 2026-04-25 14:06 | 34.70953 | -75.30150 | 34925 ft | 468 kts | 30° |
| 2026-04-25 14:06 | 34.76419 | -75.25910 | 34925 ft | 468 kts | 30° |
| 2026-04-25 14:07 | 34.81913 | -75.21644 | 34921 ft | 468 kts | 30° |
| 2026-04-25 14:07 | 34.87412 | -75.17366 | 34923 ft | 469 kts | 30° |
| 2026-04-25 14:08 | 34.92914 | -75.13078 | 34921 ft | 469 kts | 30° |
| 2026-04-25 14:08 | 34.98377 | -75.08816 | 34919 ft | 469 kts | 30° |
| 2026-04-25 14:09 | 35.03871 | -75.04521 | 34923 ft | 469 kts | 30° |
| 2026-04-25 14:09 | 35.09363 | -75.00222 | 34923 ft | 469 kts | 30° |
| 2026-04-25 14:10 | 35.14854 | -74.95916 | 34921 ft | 469 kts | 30° |
| 2026-04-25 14:10 | 35.20337 | -74.91609 | 34922 ft | 469 kts | 30° |
| 2026-04-25 14:11 | 35.25825 | -74.87293 | 34920 ft | 469 kts | 30° |
| 2026-04-25 14:11 | 35.31301 | -74.82942 | 34915 ft | 469 kts | 31° |
| 2026-04-25 14:12 | 35.36591 | -74.78231 | 34917 ft | 470 kts | 34° |
| 2026-04-25 14:12 | 35.41792 | -74.73363 | 34919 ft | 470 kts | 34° |
| 2026-04-25 14:13 | 35.46967 | -74.68533 | 34915 ft | 470 kts | 34° |
| 2026-04-25 14:13 | 35.52193 | -74.63694 | 34927 ft | 470 kts | 34° |
| 2026-04-25 14:14 | 35.57424 | -74.58863 | 34920 ft | 470 kts | 34° |
| 2026-04-25 14:14 | 35.62648 | -74.54033 | 34919 ft | 470 kts | 34° |
| 2026-04-25 14:15 | 35.66988 | -74.50012 | 34916 ft | 470 kts | 34° |
| 2026-04-25 14:15 | 35.72217 | -74.45160 | 34920 ft | 470 kts | 34° |
| 2026-04-25 14:16 | 35.78286 | -74.39516 | 34915 ft | 470 kts | 33° |
| 2026-04-25 14:16 | 35.82664 | -74.35439 | 34924 ft | 470 kts | 33° |
| 2026-04-25 14:17 | 35.87844 | -74.30606 | 34916 ft | 469 kts | 33° |
| 2026-04-25 14:17 | 35.93053 | -74.25739 | 34916 ft | 469 kts | 33° |
| 2026-04-25 14:18 | 35.98257 | -74.20868 | 34917 ft | 469 kts | 33° |
| 2026-04-25 14:18 | 36.03464 | -74.15985 | 34916 ft | 470 kts | 33° |
| 2026-04-25 14:19 | 36.08676 | -74.11092 | 34919 ft | 470 kts | 33° |
| 2026-04-25 14:19 | 36.13849 | -74.06225 | 34922 ft | 470 kts | 33° |
| 2026-04-25 14:20 | 36.19056 | -74.01317 | 34926 ft | 470 kts | 33° |
| 2026-04-25 14:20 | 36.24263 | -73.96400 | 34922 ft | 470 kts | 33° |
| 2026-04-25 14:21 | 36.29461 | -73.91486 | 34933 ft | 469 kts | 33° |
| 2026-04-25 14:21 | 36.34660 | -73.86561 | 34933 ft | 469 kts | 33° |
| 2026-04-25 14:22 | 36.39819 | -73.81666 | 34939 ft | 469 kts | 32° |
| 2026-04-25 14:22 | 36.45008 | -73.76734 | 34946 ft | 469 kts | 32° |
| 2026-04-25 14:23 | 36.50197 | -73.71794 | 34951 ft | 469 kts | 33° |
| 2026-04-25 14:23 | 36.55381 | -73.66848 | 34948 ft | 469 kts | 33° |
| 2026-04-25 14:24 | 36.60565 | -73.61893 | 34962 ft | 469 kts | 32° |
| 2026-04-25 14:24 | 36.65705 | -73.56974 | 34958 ft | 469 kts | 32° |
| 2026-04-25 14:25 | 36.70878 | -73.52014 | 34959 ft | 469 kts | 32° |
| 2026-04-25 14:25 | 36.76055 | -73.47044 | 34969 ft | 469 kts | 32° |
| 2026-04-25 14:26 | 36.81225 | -73.42069 | 34973 ft | 470 kts | 32° |
| 2026-04-25 14:26 | 36.86404 | -73.37078 | 34969 ft | 470 kts | 32° |
| 2026-04-25 14:27 | 36.91581 | -73.32079 | 34986 ft | 470 kts | 32° |
| 2026-04-25 14:27 | 36.96757 | -73.27071 | 34982 ft | 470 kts | 32° |
| 2026-04-25 14:28 | 37.01890 | -73.22096 | 34993 ft | 470 kts | 32° |
| 2026-04-25 14:28 | 37.07060 | -73.17079 | 34989 ft | 470 kts | 32° |
| 2026-04-25 14:29 | 37.12232 | -73.12051 | 34989 ft | 470 kts | 32° |
| 2026-04-25 14:29 | 37.17404 | -73.07012 | 34997 ft | 470 kts | 32° |
| 2026-04-25 14:30 | 37.22571 | -73.01971 | 34997 ft | 470 kts | 32° |
| 2026-04-25 14:30 | 37.30299 | -72.94412 | 35012 ft | 471 kts | 32° |
| 2026-04-25 14:31 | 37.35451 | -72.89361 | 35007 ft | 470 kts | 32° |
| 2026-04-25 14:31 | 37.40607 | -72.84298 | 35021 ft | 470 kts | 31° |
| 2026-04-25 14:32 | 37.45763 | -72.79226 | 35013 ft | 470 kts | 31° |
| 2026-04-25 14:32 | 37.50921 | -72.74145 | 35021 ft | 470 kts | 31° |
| 2026-04-25 14:33 | 37.56079 | -72.69069 | 35024 ft | 471 kts | 31° |
| 2026-04-25 14:33 | 37.61232 | -72.63982 | 35037 ft | 471 kts | 31° |
| 2026-04-25 14:34 | 37.66359 | -72.58905 | 35037 ft | 471 kts | 31° |
| 2026-04-25 14:34 | 37.71505 | -72.53795 | 35025 ft | 470 kts | 31° |
| 2026-04-25 14:35 | 37.76642 | -72.48683 | 35037 ft | 470 kts | 31° |
| 2026-04-25 14:35 | 37.81778 | -72.43566 | 35039 ft | 470 kts | 31° |
| 2026-04-25 14:36 | 37.86877 | -72.38345 | 35046 ft | 475 kts | 36° |
| 2026-04-25 14:36 | 37.91459 | -72.32303 | 35051 ft | 480 kts | 40° |
| 2026-04-25 14:37 | 37.95938 | -72.26005 | 35056 ft | 481 kts | 41° |
| 2026-04-25 14:37 | 38.00381 | -72.19659 | 35064 ft | 480 kts | 41° |
| 2026-04-25 14:38 | 38.04814 | -72.13336 | 35055 ft | 479 kts | 40° |
| 2026-04-25 14:38 | 38.09259 | -72.07010 | 35064 ft | 479 kts | 40° |
| 2026-04-25 14:39 | 38.11477 | -72.03852 | 35165 ft | 478 kts | 40° |
| 2026-04-25 14:39 | 38.13687 | -72.00701 | 35385 ft | 477 kts | 40° |
| 2026-04-25 14:39 | 38.15890 | -71.97555 | 35572 ft | 476 kts | 41° |
| 2026-04-25 14:39 | 38.18086 | -71.94418 | 35759 ft | 475 kts | 40° |
| 2026-04-25 14:40 | 38.20255 | -71.91318 | 35866 ft | 475 kts | 40° |
| 2026-04-25 14:40 | 38.22452 | -71.88174 | 36027 ft | 475 kts | 40° |
| 2026-04-25 14:40 | 38.26849 | -71.81876 | 36075 ft | 476 kts | 41° |
| 2026-04-25 14:41 | 38.31239 | -71.75570 | 36075 ft | 475 kts | 41° |
| 2026-04-25 14:41 | 38.35623 | -71.69260 | 36098 ft | 476 kts | 40° |
| 2026-04-25 14:42 | 38.39272 | -71.64000 | 36084 ft | 477 kts | 40° |
| 2026-04-25 14:42 | 38.44403 | -71.56586 | 36083 ft | 477 kts | 40° |
| 2026-04-25 14:43 | 38.48766 | -71.50268 | 36086 ft | 476 kts | 40° |
| 2026-04-25 14:43 | 38.53144 | -71.43918 | 36106 ft | 476 kts | 40° |
| 2026-04-25 14:44 | 38.57524 | -71.37552 | 36096 ft | 477 kts | 40° |
| 2026-04-25 14:44 | 38.61903 | -71.31173 | 36096 ft | 477 kts | 40° |
| 2026-04-25 14:45 | 38.66284 | -71.24780 | 36082 ft | 478 kts | 40° |
| 2026-04-25 14:45 | 38.70661 | -71.18381 | 36102 ft | 478 kts | 40° |
| 2026-04-25 14:46 | 38.75034 | -71.11974 | 36104 ft | 478 kts | 40° |
| 2026-04-25 14:46 | 38.79416 | -71.05540 | 36106 ft | 478 kts | 40° |
| 2026-04-25 14:47 | 38.83046 | -71.00200 | 36105 ft | 478 kts | 40° |
| 2026-04-25 14:47 | 38.88121 | -70.92718 | 36110 ft | 478 kts | 40° |
| 2026-04-25 14:48 | 38.92488 | -70.86267 | 36120 ft | 478 kts | 40° |
| 2026-04-25 14:48 | 38.96843 | -70.79816 | 36115 ft | 477 kts | 40° |
| 2026-04-25 14:49 | 39.01190 | -70.73367 | 36116 ft | 477 kts | 40° |
| 2026-04-25 14:49 | 39.05538 | -70.66906 | 36116 ft | 477 kts | 40° |
| 2026-04-25 14:50 | 39.09851 | -70.60489 | 36122 ft | 477 kts | 40° |
| 2026-04-25 14:50 | 39.14188 | -70.54016 | 36129 ft | 477 kts | 40° |
| 2026-04-25 14:51 | 39.18519 | -70.47534 | 36122 ft | 476 kts | 40° |
| 2026-04-25 14:51 | 39.22839 | -70.41062 | 36140 ft | 476 kts | 40° |
| 2026-04-25 14:52 | 39.27157 | -70.34576 | 36123 ft | 475 kts | 40° |
| 2026-04-25 14:52 | 39.30738 | -70.29191 | 36123 ft | 475 kts | 40° |
| 2026-04-25 14:53 | 39.35746 | -70.21640 | 36126 ft | 475 kts | 40° |
| 2026-04-25 14:53 | 39.40052 | -70.15135 | 36127 ft | 475 kts | 40° |
| 2026-04-25 14:54 | 39.44346 | -70.08628 | 36127 ft | 475 kts | 39° |
| 2026-04-25 14:54 | 39.48569 | -70.02011 | 36128 ft | 483 kts | 46° |
| 2026-04-25 14:55 | 39.50314 | -69.98237 | 36126 ft | 494 kts | 55° |
| 2026-04-25 14:55 | 39.51718 | -69.94133 | 36128 ft | 500 kts | 58° |
| 2026-04-25 14:55 | 39.54233 | -69.85690 | 36149 ft | 504 kts | 61° |
| 2026-04-25 14:56 | 39.56621 | -69.77138 | 36131 ft | 504 kts | 61° |
| 2026-04-25 14:56 | 39.59008 | -69.68598 | 36126 ft | 503 kts | 60° |
| 2026-04-25 14:57 | 39.61412 | -69.60077 | 36125 ft | 503 kts | 60° |
| 2026-04-25 14:57 | 39.63823 | -69.51552 | 36158 ft | 503 kts | 60° |
| 2026-04-25 14:58 | 39.66220 | -69.43058 | 36128 ft | 505 kts | 60° |
| 2026-04-25 14:58 | 39.68644 | -69.34445 | 36145 ft | 509 kts | 60° |
| 2026-04-25 14:59 | 39.71060 | -69.25810 | 36124 ft | 508 kts | 60° |
| 2026-04-25 14:59 | 39.73461 | -69.17191 | 36138 ft | 507 kts | 60° |
| 2026-04-25 15:00 | 39.75861 | -69.08566 | 36124 ft | 508 kts | 60° |
| 2026-04-25 15:00 | 39.78254 | -68.99932 | 36127 ft | 508 kts | 60° |
| 2026-04-25 15:01 | 39.80239 | -68.92745 | 36121 ft | 508 kts | 60° |
| 2026-04-25 15:01 | 39.82621 | -68.84091 | 36137 ft | 508 kts | 60° |
| 2026-04-25 15:02 | 39.85379 | -68.74039 | 36117 ft | 508 kts | 60° |
| 2026-04-25 15:02 | 39.87351 | -68.66829 | 36115 ft | 508 kts | 60° |
| 2026-04-25 15:03 | 39.89716 | -68.58155 | 36110 ft | 508 kts | 60° |
| 2026-04-25 15:03 | 39.92078 | -68.49463 | 36119 ft | 508 kts | 60° |
| 2026-04-25 15:04 | 39.94428 | -68.40778 | 36115 ft | 507 kts | 60° |
| 2026-04-25 15:04 | 39.96757 | -68.32133 | 36107 ft | 504 kts | 60° |
| 2026-04-25 15:05 | 39.99080 | -68.23493 | 36110 ft | 505 kts | 61° |
| 2026-04-25 15:05 | 39.99988 | -68.19013 | 36121 ft | 517 kts | 70° |
| 2026-04-25 15:06 | 40.01132 | -68.09768 | 36104 ft | 521 kts | 72° |
| 2026-04-25 15:06 | 40.02076 | -68.00374 | 36099 ft | 523 kts | 73° |
| 2026-04-25 15:07 | 40.02985 | -67.90959 | 36103 ft | 523 kts | 73° |
| 2026-04-25 15:07 | 40.03902 | -67.81545 | 36110 ft | 521 kts | 73° |
| 2026-04-25 15:08 | 40.04823 | -67.72172 | 36104 ft | 520 kts | 73° |
| 2026-04-25 15:08 | 40.05743 | -67.62799 | 36099 ft | 520 kts | 73° |
| 2026-04-25 15:09 | 40.06653 | -67.53430 | 36123 ft | 520 kts | 73° |
| 2026-04-25 15:09 | 40.07998 | -67.39427 | 36092 ft | 520 kts | 73° |
| 2026-04-25 15:10 | 40.08887 | -67.30052 | 36095 ft | 520 kts | 73° |
| 2026-04-25 15:11 | 40.10207 | -67.15972 | 36094 ft | 520 kts | 73° |
| 2026-04-25 15:11 | 40.11078 | -67.06583 | 36082 ft | 520 kts | 73° |
| 2026-04-25 15:12 | 40.12689 | -66.92630 | 36088 ft | 513 kts | 68° |
| 2026-04-25 15:12 | 40.13924 | -66.85064 | 36074 ft | 512 kts | 68° |
| 2026-04-25 15:13 | 40.16412 | -66.69870 | 36073 ft | 515 kts | 68° |
| 2026-04-25 15:14 | 40.17845 | -66.60693 | 36092 ft | 515 kts | 69° |
| 2026-04-25 15:14 | 40.19263 | -66.51497 | 36072 ft | 515 kts | 69° |
| 2026-04-25 15:15 | 40.20671 | -66.42292 | 36065 ft | 516 kts | 69° |
| 2026-04-25 15:15 | 40.22073 | -66.33084 | 36061 ft | 516 kts | 69° |
| 2026-04-25 15:16 | 40.23461 | -66.23936 | 36090 ft | 516 kts | 69° |
| 2026-04-25 15:16 | 40.25548 | -66.10088 | 36056 ft | 517 kts | 70° |
| 2026-04-25 15:17 | 40.27617 | -65.96225 | 36047 ft | 517 kts | 70° |
| 2026-04-25 15:18 | 40.28988 | -65.86979 | 36052 ft | 517 kts | 70° |
| 2026-04-25 15:18 | 40.31024 | -65.73142 | 36040 ft | 518 kts | 70° |
| 2026-04-25 15:19 | 40.32152 | -65.65430 | 36038 ft | 518 kts | 70° |
| 2026-04-25 15:19 | 40.33730 | -65.54575 | 36036 ft | 518 kts | 71° |
| 2026-04-25 15:20 | 40.35068 | -65.45297 | 36029 ft | 517 kts | 71° |
| 2026-04-25 15:20 | 40.36388 | -65.36092 | 36030 ft | 515 kts | 71° |
| 2026-04-25 15:21 | 40.37707 | -65.26844 | 36035 ft | 515 kts | 72° |
| 2026-04-25 15:21 | 40.39021 | -65.17588 | 36016 ft | 515 kts | 72° |
| 2026-04-25 15:22 | 40.40327 | -65.08335 | 36014 ft | 515 kts | 72° |
| 2026-04-25 15:22 | 40.41622 | -64.99086 | 36013 ft | 516 kts | 72° |
| 2026-04-25 15:23 | 40.42910 | -64.89841 | 36014 ft | 514 kts | 72° |
| 2026-04-25 15:23 | 40.44174 | -64.80693 | 36008 ft | 512 kts | 73° |
| 2026-04-25 15:24 | 40.45442 | -64.71484 | 36008 ft | 512 kts | 73° |
| 2026-04-25 15:24 | 40.46499 | -64.63768 | 36005 ft | 512 kts | 73° |
| 2026-04-25 15:25 | 40.47957 | -64.53048 | 35997 ft | 512 kts | 73° |
| 2026-04-25 15:25 | 40.49203 | -64.43818 | 35994 ft | 513 kts | 73° |
| 2026-04-25 15:26 | 40.50439 | -64.34603 | 35995 ft | 511 kts | 73° |
| 2026-04-25 15:26 | 40.51658 | -64.25460 | 35988 ft | 510 kts | 73° |
| 2026-04-25 15:27 | 40.52877 | -64.16266 | 35985 ft | 511 kts | 73° |
| 2026-04-25 15:28 | 40.54692 | -64.02467 | 35989 ft | 511 kts | 74° |
| 2026-04-25 15:28 | 40.55893 | -63.93257 | 35973 ft | 510 kts | 74° |
| 2026-04-25 15:29 | 40.57085 | -63.84058 | 35969 ft | 509 kts | 74° |
| 2026-04-25 15:29 | 40.58262 | -63.74900 | 35963 ft | 507 kts | 74° |
| 2026-04-25 15:30 | 40.59237 | -63.67289 | 35955 ft | 507 kts | 75° |
| 2026-04-25 15:30 | 40.60599 | -63.56594 | 35950 ft | 507 kts | 75° |
| 2026-04-25 15:31 | 40.61746 | -63.47508 | 35944 ft | 507 kts | 75° |
| 2026-04-25 15:31 | 40.62895 | -63.38344 | 35946 ft | 507 kts | 75° |
| 2026-04-25 15:32 | 40.64037 | -63.29176 | 35936 ft | 507 kts | 75° |
| 2026-04-25 15:32 | 40.65169 | -63.20023 | 35928 ft | 506 kts | 75° |
| 2026-04-25 15:33 | 40.66850 | -63.06332 | 35922 ft | 507 kts | 75° |
| 2026-04-25 15:33 | 40.67968 | -62.97148 | 35916 ft | 508 kts | 75° |
| 2026-04-25 15:34 | 40.69078 | -62.87958 | 35911 ft | 508 kts | 76° |
| 2026-04-25 15:34 | 40.69817 | -62.81804 | 35934 ft | 508 kts | 76° |
| 2026-04-25 15:35 | 40.71824 | -62.64976 | 35906 ft | 508 kts | 76° |
| 2026-04-25 15:36 | 40.73448 | -62.51185 | 35908 ft | 508 kts | 76° |
| 2026-04-25 15:36 | 40.74516 | -62.42025 | 35895 ft | 508 kts | 76° |
| 2026-04-25 15:37 | 40.75584 | -62.32800 | 35891 ft | 508 kts | 77° |
| 2026-04-25 15:37 | 40.76642 | -62.23594 | 35879 ft | 507 kts | 77° |
| 2026-04-25 15:38 | 40.77691 | -62.14403 | 35872 ft | 507 kts | 77° |
| 2026-04-25 15:38 | 40.78735 | -62.05192 | 35885 ft | 507 kts | 77° |
| 2026-04-25 15:39 | 40.79770 | -61.95994 | 35880 ft | 507 kts | 77° |
| 2026-04-25 15:39 | 40.80793 | -61.86844 | 35870 ft | 507 kts | 77° |
| 2026-04-25 15:40 | 40.81477 | -61.80684 | 35872 ft | 507 kts | 77° |
| 2026-04-25 15:40 | 40.82828 | -61.68421 | 35868 ft | 505 kts | 78° |
| 2026-04-25 15:41 | 40.83831 | -61.59231 | 35869 ft | 505 kts | 78° |
| 2026-04-25 15:41 | 40.84828 | -61.50042 | 35862 ft | 505 kts | 78° |
| 2026-04-25 15:42 | 40.85817 | -61.40854 | 35862 ft | 505 kts | 78° |
| 2026-04-25 15:42 | 40.86792 | -61.31712 | 35858 ft | 506 kts | 78° |
| 2026-04-25 15:43 | 40.87768 | -61.22507 | 35853 ft | 505 kts | 78° |
| 2026-04-25 15:43 | 40.88732 | -61.13326 | 35850 ft | 504 kts | 78° |
| 2026-04-25 15:44 | 40.89690 | -61.04139 | 35859 ft | 504 kts | 78° |
| 2026-04-25 15:44 | 40.90640 | -60.94958 | 35840 ft | 504 kts | 78° |
| 2026-04-25 15:45 | 40.91578 | -60.85822 | 35836 ft | 505 kts | 79° |
| 2026-04-25 15:45 | 40.92206 | -60.79659 | 35835 ft | 505 kts | 79° |
| 2026-04-25 15:46 | 40.93446 | -60.67409 | 35829 ft | 505 kts | 79° |
| 2026-04-25 15:46 | 40.94369 | -60.58182 | 35818 ft | 505 kts | 79° |
| 2026-04-25 15:47 | 40.95285 | -60.48962 | 35822 ft | 505 kts | 79° |
| 2026-04-25 15:47 | 40.96188 | -60.39795 | 35814 ft | 506 kts | 79° |
| 2026-04-25 15:48 | 40.97092 | -60.30539 | 35819 ft | 507 kts | 79° |
| 2026-04-25 15:48 | 40.97988 | -60.21289 | 35815 ft | 505 kts | 79° |
| 2026-04-25 15:49 | 40.98724 | -60.13620 | 35811 ft | 504 kts | 79° |
| 2026-04-25 15:49 | 40.99604 | -60.04400 | 35809 ft | 505 kts | 80° |
| 2026-04-25 15:50 | 41.00617 | -59.95195 | 35810 ft | 505 kts | 77° |
| 2026-04-25 15:50 | 41.01945 | -59.86068 | 35800 ft | 504 kts | 75° |
| 2026-04-25 15:51 | 41.03088 | -59.78500 | 35810 ft | 504 kts | 76° |
| 2026-04-25 15:51 | 41.04640 | -59.67908 | 35790 ft | 503 kts | 76° |
| 2026-04-25 15:52 | 41.05941 | -59.58785 | 35793 ft | 504 kts | 76° |
| 2026-04-25 15:52 | 41.07230 | -59.49633 | 35785 ft | 505 kts | 76° |
| 2026-04-25 15:53 | 41.08514 | -59.40468 | 35785 ft | 505 kts | 76° |
| 2026-04-25 15:53 | 41.09790 | -59.31305 | 35776 ft | 505 kts | 77° |
| 2026-04-25 15:54 | 41.11050 | -59.22218 | 35777 ft | 504 kts | 77° |
| 2026-04-25 15:54 | 41.12313 | -59.13057 | 35772 ft | 505 kts | 77° |
| 2026-04-25 15:55 | 41.13572 | -59.03863 | 35769 ft | 506 kts | 77° |
| 2026-04-25 15:55 | 41.14824 | -58.94659 | 35760 ft | 506 kts | 77° |
| 2026-04-25 15:56 | 41.16070 | -58.85449 | 35760 ft | 506 kts | 77° |
| 2026-04-25 15:56 | 41.17300 | -58.76296 | 35749 ft | 506 kts | 77° |
| 2026-04-25 15:57 | 41.18530 | -58.67086 | 35749 ft | 507 kts | 77° |
| 2026-04-25 15:57 | 41.19755 | -58.57854 | 35745 ft | 508 kts | 77° |
| 2026-04-25 15:58 | 41.20973 | -58.48611 | 35743 ft | 508 kts | 77° |
| 2026-04-25 15:58 | 41.22185 | -58.39359 | 35735 ft | 508 kts | 78° |
| 2026-04-25 15:59 | 41.23388 | -58.30112 | 35736 ft | 508 kts | 77° |
| 2026-04-25 15:59 | 41.24578 | -58.20915 | 35734 ft | 509 kts | 78° |
| 2026-04-25 16:00 | 41.25377 | -58.14705 | 35733 ft | 510 kts | 78° |
| 2026-04-25 16:00 | 41.26959 | -58.02315 | 35741 ft | 511 kts | 78° |
| 2026-04-25 16:01 | 41.28142 | -57.92985 | 35725 ft | 510 kts | 78° |
| 2026-04-25 16:01 | 41.29314 | -57.83672 | 35722 ft | 510 kts | 78° |
| 2026-04-25 16:02 | 41.30469 | -57.74426 | 35719 ft | 510 kts | 78° |
| 2026-04-25 16:02 | 41.31626 | -57.65119 | 35715 ft | 510 kts | 78° |
| 2026-04-25 16:03 | 41.32777 | -57.55786 | 35720 ft | 510 kts | 78° |
| 2026-04-25 16:03 | 41.33920 | -57.46451 | 35706 ft | 510 kts | 78° |
| 2026-04-25 16:04 | 41.35047 | -57.37186 | 35705 ft | 510 kts | 78° |
| 2026-04-25 16:04 | 41.36173 | -57.27861 | 35704 ft | 511 kts | 79° |
| 2026-04-25 16:05 | 41.37297 | -57.18496 | 35694 ft | 513 kts | 79° |
| 2026-04-25 16:06 | 41.38972 | -57.04400 | 35694 ft | 513 kts | 78° |
| 2026-04-25 16:06 | 41.40078 | -56.94999 | 35689 ft | 512 kts | 79° |
| 2026-04-25 16:07 | 41.41177 | -56.85614 | 35685 ft | 513 kts | 79° |
| 2026-04-25 16:07 | 41.42271 | -56.76211 | 35679 ft | 515 kts | 79° |
| 2026-04-25 16:08 | 41.43351 | -56.66832 | 35684 ft | 516 kts | 79° |
| 2026-04-25 16:08 | 41.44433 | -56.57376 | 35673 ft | 515 kts | 79° |
| 2026-04-25 16:09 | 41.45506 | -56.47927 | 35665 ft | 515 kts | 79° |
| 2026-04-25 16:09 | 41.46572 | -56.38470 | 35668 ft | 515 kts | 79° |
| 2026-04-25 16:10 | 41.47629 | -56.29017 | 35656 ft | 517 kts | 80° |
| 2026-04-25 16:10 | 41.48684 | -56.19514 | 35663 ft | 518 kts | 80° |
| 2026-04-25 16:11 | 41.49732 | -56.10000 | 35647 ft | 518 kts | 80° |
| 2026-04-25 16:11 | 41.50766 | -56.00526 | 35651 ft | 519 kts | 81° |
| 2026-04-25 16:12 | 41.51800 | -55.90992 | 35641 ft | 519 kts | 81° |
| 2026-04-25 16:12 | 41.52827 | -55.81454 | 35653 ft | 520 kts | 81° |
| 2026-04-25 16:13 | 41.53842 | -55.71935 | 35637 ft | 521 kts | 81° |
| 2026-04-25 16:13 | 41.54855 | -55.62358 | 35637 ft | 520 kts | 81° |
| 2026-04-25 16:14 | 41.55857 | -55.52810 | 35630 ft | 520 kts | 81° |
| 2026-04-25 16:14 | 41.56854 | -55.43230 | 35630 ft | 520 kts | 81° |
| 2026-04-25 16:15 | 41.57845 | -55.33642 | 35624 ft | 522 kts | 81° |
| 2026-04-25 16:15 | 41.58830 | -55.24023 | 35625 ft | 523 kts | 81° |
| 2026-04-25 16:16 | 41.59808 | -55.14382 | 35617 ft | 523 kts | 81° |
| 2026-04-25 16:16 | 41.60772 | -55.04802 | 35615 ft | 523 kts | 81° |
| 2026-04-25 16:17 | 41.61735 | -54.95157 | 35610 ft | 523 kts | 81° |
| 2026-04-25 16:17 | 41.62690 | -54.85502 | 35611 ft | 525 kts | 82° |
| 2026-04-25 16:18 | 41.63641 | -54.75805 | 35609 ft | 525 kts | 82° |
| 2026-04-25 16:18 | 41.64582 | -54.66116 | 35604 ft | 525 kts | 82° |
| 2026-04-25 16:19 | 41.65508 | -54.56486 | 35603 ft | 525 kts | 82° |
| 2026-04-25 16:19 | 41.66431 | -54.46804 | 35598 ft | 525 kts | 82° |
| 2026-04-25 16:20 | 41.67809 | -54.32221 | 35598 ft | 527 kts | 82° |
| 2026-04-25 16:21 | 41.69167 | -54.17625 | 35595 ft | 527 kts | 82° |
| 2026-04-25 16:21 | 41.70062 | -54.07894 | 35592 ft | 527 kts | 82° |
| 2026-04-25 16:22 | 41.70950 | -53.98156 | 35589 ft | 527 kts | 82° |
| 2026-04-25 16:22 | 41.71830 | -53.88404 | 35591 ft | 529 kts | 83° |
| 2026-04-25 16:23 | 41.72700 | -53.78677 | 35587 ft | 530 kts | 83° |
| 2026-04-25 16:23 | 41.73561 | -53.68868 | 35583 ft | 530 kts | 83° |
| 2026-04-25 16:24 | 41.74413 | -53.59068 | 35583 ft | 530 kts | 83° |
| 2026-04-25 16:24 | 41.75261 | -53.49269 | 35580 ft | 530 kts | 83° |
| 2026-04-25 16:25 | 41.76105 | -53.39450 | 35585 ft | 532 kts | 83° |
| 2026-04-25 16:25 | 41.76942 | -53.29604 | 35578 ft | 533 kts | 84° |
| 2026-04-25 16:26 | 41.77772 | -53.19735 | 35582 ft | 533 kts | 84° |
| 2026-04-25 16:26 | 41.78594 | -53.09869 | 35571 ft | 532 kts | 84° |
| 2026-04-25 16:27 | 41.79401 | -53.00062 | 35574 ft | 532 kts | 84° |
| 2026-04-25 16:27 | 41.80205 | -52.90202 | 35570 ft | 532 kts | 84° |
| 2026-04-25 16:28 | 41.81001 | -52.80329 | 35567 ft | 532 kts | 84° |
| 2026-04-25 16:28 | 41.81789 | -52.70444 | 35567 ft | 532 kts | 84° |
| 2026-04-25 16:29 | 41.82568 | -52.60572 | 35564 ft | 532 kts | 84° |
| 2026-04-25 16:29 | 41.83338 | -52.50694 | 35574 ft | 532 kts | 84° |
| 2026-04-25 16:30 | 41.83973 | -52.42471 | 35560 ft | 533 kts | 85° |
| 2026-04-25 16:30 | 41.84854 | -52.30933 | 35562 ft | 535 kts | 85° |
| 2026-04-25 16:31 | 41.85603 | -52.20991 | 35560 ft | 535 kts | 85° |
| 2026-04-25 16:31 | 41.86342 | -52.11073 | 35564 ft | 535 kts | 85° |
| 2026-04-25 16:32 | 41.87072 | -52.01152 | 35543 ft | 534 kts | 85° |
| 2026-04-25 16:32 | 41.87795 | -51.91219 | 35565 ft | 536 kts | 85° |
| 2026-04-25 16:33 | 41.88507 | -51.81309 | 35557 ft | 537 kts | 85° |
| 2026-04-25 16:33 | 41.89215 | -51.71325 | 35559 ft | 537 kts | 85° |
| 2026-04-25 16:34 | 41.89916 | -51.61337 | 35555 ft | 537 kts | 85° |
| 2026-04-25 16:34 | 41.90607 | -51.51353 | 35540 ft | 537 kts | 86° |
| 2026-04-25 16:35 | 41.91065 | -51.44662 | 35556 ft | 539 kts | 86° |
| 2026-04-25 16:35 | 41.91855 | -51.32987 | 35556 ft | 540 kts | 86° |
| 2026-04-25 16:36 | 41.92525 | -51.22945 | 35557 ft | 540 kts | 86° |
| 2026-04-25 16:36 | 41.93187 | -51.12886 | 35565 ft | 540 kts | 86° |
| 2026-04-25 16:37 | 41.93839 | -51.02857 | 35540 ft | 538 kts | 86° |
| 2026-04-25 16:37 | 41.94481 | -50.92825 | 35553 ft | 540 kts | 86° |
| 2026-04-25 16:38 | 41.95116 | -50.82768 | 35551 ft | 541 kts | 86° |
| 2026-04-25 16:38 | 41.95744 | -50.72697 | 35554 ft | 541 kts | 86° |
| 2026-04-25 16:39 | 41.96358 | -50.62695 | 35559 ft | 540 kts | 87° |
| 2026-04-25 16:39 | 41.96967 | -50.52643 | 35537 ft | 539 kts | 87° |
| 2026-04-25 16:40 | 41.97567 | -50.42572 | 35552 ft | 542 kts | 87° |
| 2026-04-25 16:40 | 41.98161 | -50.32466 | 35554 ft | 542 kts | 87° |
| 2026-04-25 16:41 | 41.98746 | -50.22356 | 35554 ft | 542 kts | 88° |
| 2026-04-25 16:41 | 41.99607 | -50.07196 | 35557 ft | 542 kts | 88° |
| 2026-04-25 16:42 | 42.00478 | -49.97135 | 35546 ft | 544 kts | 82° |
| 2026-04-25 16:42 | 42.01834 | -49.87158 | 35561 ft | 546 kts | 81° |
| 2026-04-25 16:43 | 42.03287 | -49.77142 | 35544 ft | 546 kts | 80° |
| 2026-04-25 16:43 | 42.04741 | -49.67116 | 35556 ft | 545 kts | 81° |
| 2026-04-25 16:44 | 42.06172 | -49.57097 | 35553 ft | 545 kts | 81° |
| 2026-04-25 16:44 | 42.07589 | -49.47063 | 35554 ft | 545 kts | 81° |
| 2026-04-25 16:45 | 42.08996 | -49.37023 | 35561 ft | 547 kts | 81° |
| 2026-04-25 16:45 | 42.10400 | -49.26936 | 35547 ft | 548 kts | 82° |
| 2026-04-25 16:46 | 42.11791 | -49.16889 | 35559 ft | 548 kts | 82° |
| 2026-04-25 16:46 | 42.12943 | -49.08506 | 35559 ft | 547 kts | 82° |
| 2026-04-25 16:47 | 42.14555 | -48.96706 | 35564 ft | 547 kts | 82° |
| 2026-04-25 16:47 | 42.15924 | -48.86610 | 35555 ft | 547 kts | 82° |
| 2026-04-25 16:48 | 42.17283 | -48.76513 | 35558 ft | 548 kts | 82° |
| 2026-04-25 16:48 | 42.18630 | -48.66430 | 35563 ft | 549 kts | 82° |
| 2026-04-25 16:49 | 42.19976 | -48.56297 | 35561 ft | 549 kts | 82° |
| 2026-04-25 16:49 | 42.21312 | -48.46164 | 35563 ft | 548 kts | 83° |
| 2026-04-25 16:50 | 42.22637 | -48.36035 | 35563 ft | 548 kts | 83° |
| 2026-04-25 16:50 | 42.23953 | -48.25908 | 35564 ft | 548 kts | 83° |
| 2026-04-25 16:51 | 42.25255 | -48.15808 | 35564 ft | 550 kts | 83° |
| 2026-04-25 16:51 | 42.26350 | -48.07257 | 35564 ft | 552 kts | 83° |
| 2026-04-25 16:52 | 42.27861 | -47.95386 | 35564 ft | 552 kts | 83° |
| 2026-04-25 16:52 | 42.29153 | -47.85153 | 35562 ft | 552 kts | 84° |
| 2026-04-25 16:53 | 42.31061 | -47.69893 | 35568 ft | 551 kts | 84° |
| 2026-04-25 16:54 | 42.32327 | -47.59674 | 35567 ft | 551 kts | 84° |
| 2026-04-25 16:54 | 42.33581 | -47.49466 | 35570 ft | 551 kts | 84° |
| 2026-04-25 16:55 | 42.34827 | -47.39255 | 35570 ft | 551 kts | 84° |
| 2026-04-25 16:55 | 42.36063 | -47.29040 | 35570 ft | 551 kts | 84° |
| 2026-04-25 16:56 | 42.37292 | -47.18808 | 35573 ft | 551 kts | 84° |
| 2026-04-25 16:56 | 42.38512 | -47.08575 | 35573 ft | 550 kts | 84° |
| 2026-04-25 16:57 | 42.39722 | -46.98341 | 35576 ft | 551 kts | 85° |
| 2026-04-25 16:57 | 42.40918 | -46.88133 | 35576 ft | 554 kts | 85° |
| 2026-04-25 16:58 | 42.42117 | -46.77830 | 35583 ft | 554 kts | 85° |
| 2026-04-25 16:58 | 42.43307 | -46.67528 | 35578 ft | 554 kts | 85° |
| 2026-04-25 16:59 | 42.44487 | -46.57223 | 35579 ft | 554 kts | 85° |
| 2026-04-25 16:59 | 42.45659 | -46.46903 | 35580 ft | 553 kts | 85° |
| 2026-04-25 17:00 | 42.46821 | -46.36587 | 35567 ft | 554 kts | 86° |
| 2026-04-25 17:00 | 42.47967 | -46.26316 | 35580 ft | 556 kts | 86° |
| 2026-04-25 17:01 | 42.49114 | -46.15956 | 35579 ft | 556 kts | 86° |
| 2026-04-25 17:01 | 42.50253 | -46.05589 | 35580 ft | 555 kts | 86° |
| 2026-04-25 17:02 | 42.51383 | -45.95220 | 35597 ft | 555 kts | 86° |
| 2026-04-25 17:02 | 42.52492 | -45.84948 | 35579 ft | 554 kts | 86° |
| 2026-04-25 17:03 | 42.53596 | -45.74619 | 35584 ft | 554 kts | 86° |
| 2026-04-25 17:03 | 42.54694 | -45.64259 | 35588 ft | 555 kts | 86° |
| 2026-04-25 17:04 | 42.55782 | -45.53916 | 35595 ft | 554 kts | 86° |
| 2026-04-25 17:04 | 42.56860 | -45.43564 | 35595 ft | 554 kts | 87° |
| 2026-04-25 17:05 | 42.57927 | -45.33224 | 35594 ft | 553 kts | 87° |
| 2026-04-25 17:05 | 42.59512 | -45.17697 | 35550 ft | 553 kts | 87° |
| 2026-04-25 17:06 | 42.60557 | -45.07339 | 35598 ft | 554 kts | 87° |
| 2026-04-25 17:06 | 42.61587 | -44.97028 | 35604 ft | 555 kts | 87° |
| 2026-04-25 17:07 | 42.62617 | -44.86632 | 35602 ft | 555 kts | 87° |
| 2026-04-25 17:07 | 42.63636 | -44.76261 | 35605 ft | 553 kts | 87° |
| 2026-04-25 17:08 | 42.64641 | -44.65917 | 35606 ft | 552 kts | 87° |
| 2026-04-25 17:08 | 42.65637 | -44.55563 | 35557 ft | 552 kts | 88° |
| 2026-04-25 17:09 | 42.66617 | -44.45273 | 35598 ft | 553 kts | 88° |
| 2026-04-25 17:09 | 42.67595 | -44.34918 | 35608 ft | 551 kts | 88° |
| 2026-04-25 17:10 | 42.68561 | -44.24584 | 35611 ft | 550 kts | 88° |
| 2026-04-25 17:10 | 42.69516 | -44.14260 | 35611 ft | 550 kts | 88° |
| 2026-04-25 17:11 | 42.70455 | -44.03996 | 35617 ft | 550 kts | 88° |
| 2026-04-25 17:11 | 42.71391 | -43.93685 | 35619 ft | 549 kts | 88° |
| 2026-04-25 17:12 | 42.72316 | -43.83376 | 35621 ft | 549 kts | 88° |
| 2026-04-25 17:12 | 42.73233 | -43.73051 | 35623 ft | 549 kts | 88° |
| 2026-04-25 17:13 | 42.73841 | -43.66144 | 35626 ft | 549 kts | 88° |
| 2026-04-25 17:13 | 42.75038 | -43.52412 | 35629 ft | 548 kts | 88° |
| 2026-04-25 17:14 | 42.75924 | -43.42120 | 35627 ft | 548 kts | 89° |
| 2026-04-25 17:14 | 42.76801 | -43.31817 | 35626 ft | 548 kts | 89° |
| 2026-04-25 17:15 | 42.77668 | -43.21521 | 35629 ft | 547 kts | 89° |
| 2026-04-25 17:15 | 42.78525 | -43.11235 | 35631 ft | 547 kts | 89° |
| 2026-04-25 17:16 | 42.79373 | -43.00935 | 35637 ft | 547 kts | 89° |
| 2026-04-25 17:16 | 42.80212 | -42.90638 | 35628 ft | 547 kts | 89° |
| 2026-04-25 17:17 | 42.81036 | -42.80405 | 35643 ft | 547 kts | 89° |
| 2026-04-25 17:17 | 42.81856 | -42.70112 | 35635 ft | 546 kts | 89° |
| 2026-04-25 17:18 | 42.82665 | -42.59837 | 35636 ft | 545 kts | 89° |
| 2026-04-25 17:18 | 42.83465 | -42.49557 | 35639 ft | 544 kts | 89° |
| 2026-04-25 17:19 | 42.84249 | -42.39355 | 35634 ft | 544 kts | 89° |
| 2026-04-25 17:19 | 42.85029 | -42.29088 | 35630 ft | 543 kts | 89° |
| 2026-04-25 17:20 | 42.85797 | -42.18867 | 35637 ft | 542 kts | 89° |
| 2026-04-25 17:20 | 42.86555 | -42.08641 | 35637 ft | 542 kts | 89° |
| 2026-04-25 17:21 | 42.87178 | -42.00145 | 35634 ft | 542 kts | 89° |
| 2026-04-25 17:21 | 42.87919 | -41.89922 | 35645 ft | 541 kts | 89° |
| 2026-04-25 17:22 | 42.88527 | -41.81453 | 35642 ft | 539 kts | 89° |
| 2026-04-25 17:22 | 42.89369 | -41.69552 | 35647 ft | 539 kts | 89° |
| 2026-04-25 17:23 | 42.90079 | -41.59367 | 35646 ft | 539 kts | 90° |
| 2026-04-25 17:23 | 42.90776 | -41.49250 | 35646 ft | 539 kts | 90° |
| 2026-04-25 17:24 | 42.91468 | -41.39082 | 35651 ft | 538 kts | 90° |
| 2026-04-25 17:24 | 42.92151 | -41.28909 | 35654 ft | 537 kts | 90° |
| 2026-04-25 17:25 | 42.92823 | -41.18752 | 35661 ft | 537 kts | 90° |
| 2026-04-25 17:25 | 42.93486 | -41.08597 | 35654 ft | 537 kts | 90° |
| 2026-04-25 17:26 | 42.94140 | -40.98447 | 35664 ft | 536 kts | 90° |
| 2026-04-25 17:26 | 42.94784 | -40.88307 | 35664 ft | 536 kts | 90° |
| 2026-04-25 17:27 | 42.95419 | -40.78163 | 35667 ft | 536 kts | 90° |
| 2026-04-25 17:27 | 42.95939 | -40.69735 | 35665 ft | 537 kts | 90° |
| 2026-04-25 17:28 | 42.96659 | -40.57911 | 35662 ft | 537 kts | 90° |
| 2026-04-25 17:28 | 42.97269 | -40.47746 | 35670 ft | 537 kts | 90° |
| 2026-04-25 17:29 | 42.97868 | -40.37587 | 35672 ft | 536 kts | 90° |
| 2026-04-25 17:29 | 42.98459 | -40.27429 | 35674 ft | 536 kts | 90° |
| 2026-04-25 17:30 | 42.99041 | -40.17275 | 35671 ft | 536 kts | 91° |
| 2026-04-25 17:30 | 42.99612 | -40.07121 | 35686 ft | 537 kts | 91° |
| 2026-04-25 17:31 | 43.00159 | -39.96945 | 35678 ft | 538 kts | 91° |
| 2026-04-25 17:31 | 43.00606 | -39.86745 | 35666 ft | 537 kts | 92° |
| 2026-04-25 17:32 | 43.01018 | -39.76551 | 35681 ft | 537 kts | 92° |
| 2026-04-25 17:32 | 43.01425 | -39.66423 | 35670 ft | 537 kts | 92° |
| 2026-04-25 17:33 | 43.01833 | -39.56232 | 35682 ft | 537 kts | 92° |
| 2026-04-25 17:33 | 43.02233 | -39.46047 | 35683 ft | 538 kts | 92° |
| 2026-04-25 17:34 | 43.02626 | -39.35823 | 35681 ft | 539 kts | 92° |
| 2026-04-25 17:34 | 43.03012 | -39.25593 | 35693 ft | 538 kts | 92° |
| 2026-04-25 17:35 | 43.03387 | -39.15366 | 35695 ft | 538 kts | 92° |
| 2026-04-25 17:35 | 43.03753 | -39.05139 | 35695 ft | 538 kts | 92° |
| 2026-04-25 17:36 | 43.04110 | -38.94915 | 35703 ft | 538 kts | 92° |
| 2026-04-25 17:36 | 43.04457 | -38.84693 | 35701 ft | 539 kts | 92° |
| 2026-04-25 17:37 | 43.04794 | -38.74495 | 35711 ft | 540 kts | 92° |
| 2026-04-25 17:37 | 43.05125 | -38.64231 | 35717 ft | 540 kts | 92° |
| 2026-04-25 17:38 | 43.05392 | -38.55717 | 35716 ft | 540 kts | 92° |
| 2026-04-25 17:38 | 43.05759 | -38.43709 | 35723 ft | 539 kts | 92° |
| 2026-04-25 17:39 | 43.06059 | -38.33531 | 35730 ft | 539 kts | 92° |
| 2026-04-25 17:39 | 43.06352 | -38.23281 | 35739 ft | 539 kts | 92° |
| 2026-04-25 17:40 | 43.06637 | -38.13023 | 35743 ft | 539 kts | 92° |
| 2026-04-25 17:40 | 43.06912 | -38.02764 | 35750 ft | 539 kts | 92° |
| 2026-04-25 17:41 | 43.07178 | -37.92536 | 35757 ft | 538 kts | 92° |
| 2026-04-25 17:41 | 43.07433 | -37.82312 | 35761 ft | 538 kts | 92° |
| 2026-04-25 17:42 | 43.07680 | -37.72090 | 35765 ft | 538 kts | 92° |
| 2026-04-25 17:42 | 43.07918 | -37.61867 | 35765 ft | 537 kts | 92° |
| 2026-04-25 17:43 | 43.08145 | -37.51739 | 35779 ft | 534 kts | 92° |
| 2026-04-25 17:43 | 43.08363 | -37.41587 | 35785 ft | 534 kts | 92° |
| 2026-04-25 17:44 | 43.08572 | -37.31424 | 35782 ft | 534 kts | 92° |
| 2026-04-25 17:44 | 43.08772 | -37.21266 | 35793 ft | 533 kts | 92° |
| 2026-04-25 17:45 | 43.08900 | -37.14548 | 35796 ft | 533 kts | 92° |
| 2026-04-25 17:45 | 43.09145 | -37.00989 | 35794 ft | 533 kts | 92° |
| 2026-04-25 17:46 | 43.09318 | -36.90856 | 35812 ft | 532 kts | 92° |
| 2026-04-25 17:46 | 43.09480 | -36.80804 | 35812 ft | 532 kts | 92° |
| 2026-04-25 17:47 | 43.09636 | -36.70619 | 35826 ft | 532 kts | 92° |
| 2026-04-25 17:47 | 43.09781 | -36.60554 | 35829 ft | 532 kts | 92° |
| 2026-04-25 17:48 | 43.09983 | -36.45370 | 35839 ft | 532 kts | 92° |
| 2026-04-25 17:49 | 43.10107 | -36.35248 | 35840 ft | 532 kts | 92° |
| 2026-04-25 17:49 | 43.10222 | -36.25150 | 35858 ft | 530 kts | 92° |
| 2026-04-25 17:50 | 43.10327 | -36.15069 | 35858 ft | 529 kts | 92° |
| 2026-04-25 17:50 | 43.10424 | -36.04987 | 35863 ft | 529 kts | 92° |
| 2026-04-25 17:51 | 43.10511 | -35.94990 | 35872 ft | 529 kts | 92° |
| 2026-04-25 17:51 | 43.10589 | -35.84905 | 35875 ft | 529 kts | 92° |
| 2026-04-25 17:52 | 43.10659 | -35.74849 | 35869 ft | 528 kts | 92° |
| 2026-04-25 17:52 | 43.10720 | -35.64768 | 35887 ft | 531 kts | 92° |
| 2026-04-25 17:53 | 43.10773 | -35.54675 | 35891 ft | 531 kts | 92° |
| 2026-04-25 17:53 | 43.10817 | -35.44554 | 35892 ft | 531 kts | 92° |
| 2026-04-25 17:54 | 43.10851 | -35.34499 | 35894 ft | 532 kts | 92° |
| 2026-04-25 17:54 | 43.10877 | -35.24375 | 35903 ft | 532 kts | 92° |
| 2026-04-25 17:55 | 43.10895 | -35.14244 | 35909 ft | 532 kts | 92° |
| 2026-04-25 17:55 | 43.10903 | -35.04113 | 35908 ft | 532 kts | 92° |
| 2026-04-25 17:56 | 43.10902 | -34.93997 | 35919 ft | 530 kts | 92° |
| 2026-04-25 17:56 | 43.10893 | -34.83918 | 35925 ft | 529 kts | 92° |
| 2026-04-25 17:57 | 43.10874 | -34.73913 | 35934 ft | 529 kts | 92° |
| 2026-04-25 17:57 | 43.10846 | -34.63834 | 35938 ft | 529 kts | 93° |
| 2026-04-25 17:58 | 43.10810 | -34.53761 | 35916 ft | 529 kts | 93° |
| 2026-04-25 17:58 | 43.10766 | -34.43721 | 35949 ft | 526 kts | 93° |
| 2026-04-25 17:59 | 43.10713 | -34.33727 | 35948 ft | 524 kts | 93° |
| 2026-04-25 17:59 | 43.10650 | -34.23744 | 35955 ft | 524 kts | 93° |
| 2026-04-25 18:00 | 43.10579 | -34.13768 | 35960 ft | 524 kts | 93° |
| 2026-04-25 18:00 | 43.10499 | -34.03831 | 35971 ft | 525 kts | 93° |
| 2026-04-25 18:01 | 43.10411 | -33.93825 | 35973 ft | 525 kts | 93° |
| 2026-04-25 18:01 | 43.10315 | -33.83839 | 35972 ft | 524 kts | 93° |
| 2026-04-25 18:02 | 43.10211 | -33.73885 | 35982 ft | 523 kts | 94° |
| 2026-04-25 18:02 | 43.10097 | -33.63924 | 35988 ft | 524 kts | 93° |
| 2026-04-25 18:03 | 43.09974 | -33.53936 | 35991 ft | 524 kts | 94° |
| 2026-04-25 18:03 | 43.09843 | -33.43974 | 35993 ft | 524 kts | 94° |
| 2026-04-25 18:04 | 43.09704 | -33.34075 | 35991 ft | 524 kts | 94° |
| 2026-04-25 18:04 | 43.09555 | -33.24107 | 36007 ft | 524 kts | 93° |
| 2026-04-25 18:05 | 43.09398 | -33.14135 | 36008 ft | 524 kts | 94° |
| 2026-04-25 18:05 | 43.09233 | -33.04164 | 36017 ft | 523 kts | 94° |
| 2026-04-25 18:06 | 43.09058 | -32.94198 | 36015 ft | 523 kts | 94° |
| 2026-04-25 18:06 | 43.08907 | -32.85923 | 36020 ft | 523 kts | 94° |
| 2026-04-25 18:07 | 43.08717 | -32.75971 | 36030 ft | 523 kts | 94° |
| 2026-04-25 18:07 | 43.08519 | -32.66031 | 36011 ft | 523 kts | 94° |
| 2026-04-25 18:08 | 43.08312 | -32.56093 | 36031 ft | 522 kts | 94° |
| 2026-04-25 18:08 | 43.08097 | -32.46159 | 36035 ft | 522 kts | 94° |
| 2026-04-25 18:09 | 43.07874 | -32.36293 | 36042 ft | 522 kts | 94° |
| 2026-04-25 18:09 | 43.07641 | -32.26350 | 36043 ft | 523 kts | 94° |
| 2026-04-25 18:10 | 43.07399 | -32.16393 | 36047 ft | 523 kts | 94° |
| 2026-04-25 18:10 | 43.07149 | -32.06443 | 36049 ft | 523 kts | 94° |
| 2026-04-25 18:11 | 43.06890 | -31.96490 | 36052 ft | 523 kts | 93° |
| 2026-04-25 18:11 | 43.06623 | -31.86549 | 36059 ft | 523 kts | 93° |
| 2026-04-25 18:12 | 43.06347 | -31.76615 | 36060 ft | 523 kts | 93° |
| 2026-04-25 18:12 | 43.06065 | -31.66734 | 36061 ft | 523 kts | 93° |
| 2026-04-25 18:13 | 43.05772 | -31.56804 | 36063 ft | 523 kts | 93° |
| 2026-04-25 18:13 | 43.05470 | -31.46860 | 36069 ft | 522 kts | 93° |
| 2026-04-25 18:14 | 43.05003 | -31.32003 | 36075 ft | 520 kts | 93° |
| 2026-04-25 18:14 | 43.04682 | -31.22123 | 36078 ft | 519 kts | 93° |
| 2026-04-25 18:15 | 43.04355 | -31.12325 | 36083 ft | 520 kts | 93° |
| 2026-04-25 18:15 | 43.04017 | -31.02450 | 36085 ft | 518 kts | 93° |
| 2026-04-25 18:16 | 43.03671 | -30.92600 | 36086 ft | 518 kts | 93° |
| 2026-04-25 18:17 | 43.03137 | -30.77851 | 36085 ft | 518 kts | 93° |
| 2026-04-25 18:17 | 43.02770 | -30.68017 | 36101 ft | 517 kts | 93° |
| 2026-04-25 18:18 | 43.02399 | -30.58261 | 36093 ft | 517 kts | 93° |
| 2026-04-25 18:18 | 43.02017 | -30.48451 | 36100 ft | 517 kts | 93° |
| 2026-04-25 18:19 | 43.01626 | -30.38640 | 36095 ft | 517 kts | 93° |
| 2026-04-25 18:19 | 43.01227 | -30.28827 | 36102 ft | 517 kts | 93° |
| 2026-04-25 18:20 | 43.00819 | -30.19019 | 36102 ft | 517 kts | 93° |
| 2026-04-25 18:20 | 43.00404 | -30.09230 | 36108 ft | 515 kts | 93° |
| 2026-04-25 18:21 | 43.00120 | -29.99519 | 36109 ft | 514 kts | 88° |
| 2026-04-25 18:21 | 43.00422 | -29.89757 | 36102 ft | 514 kts | 86° |
| 2026-04-25 18:22 | 43.00833 | -29.80010 | 36107 ft | 513 kts | 86° |
| 2026-04-25 18:22 | 43.01254 | -29.70291 | 36117 ft | 512 kts | 86° |
| 2026-04-25 18:23 | 43.01658 | -29.60592 | 36117 ft | 511 kts | 86° |
| 2026-04-25 18:23 | 43.02045 | -29.50885 | 36110 ft | 511 kts | 86° |
| 2026-04-25 18:24 | 43.02424 | -29.41153 | 36123 ft | 511 kts | 86° |
| 2026-04-25 18:24 | 43.02791 | -29.31477 | 36118 ft | 509 kts | 86° |
| 2026-04-25 18:25 | 43.03150 | -29.21815 | 36120 ft | 508 kts | 86° |
| 2026-04-25 18:25 | 43.03499 | -29.12225 | 36121 ft | 508 kts | 86° |
| 2026-04-25 18:26 | 43.03843 | -29.02558 | 36119 ft | 508 kts | 86° |
| 2026-04-25 18:26 | 43.04177 | -28.92912 | 36120 ft | 508 kts | 86° |
| 2026-04-25 18:27 | 43.04504 | -28.83268 | 36121 ft | 508 kts | 86° |
| 2026-04-25 18:27 | 43.04822 | -28.73626 | 36124 ft | 508 kts | 86° |
| 2026-04-25 18:28 | 43.05130 | -28.64033 | 36132 ft | 508 kts | 87° |
| 2026-04-25 18:28 | 43.05432 | -28.54388 | 36130 ft | 507 kts | 87° |
| 2026-04-25 18:29 | 43.05869 | -28.39945 | 36124 ft | 507 kts | 87° |
| 2026-04-25 18:30 | 43.06424 | -28.20689 | 36128 ft | 506 kts | 87° |
| 2026-04-25 18:30 | 43.06688 | -28.11074 | 36124 ft | 506 kts | 87° |
| 2026-04-25 18:31 | 43.06945 | -28.01454 | 36124 ft | 506 kts | 87° |
| 2026-04-25 18:31 | 43.07194 | -27.91823 | 36129 ft | 506 kts | 87° |
| 2026-04-25 18:32 | 43.07433 | -27.82264 | 36123 ft | 506 kts | 87° |
| 2026-04-25 18:32 | 43.07666 | -27.72647 | 36116 ft | 505 kts | 87° |
| 2026-04-25 18:33 | 43.07890 | -27.63032 | 36130 ft | 505 kts | 87° |
| 2026-04-25 18:33 | 43.08106 | -27.53434 | 36124 ft | 505 kts | 87° |
| 2026-04-25 18:34 | 43.08314 | -27.43828 | 36128 ft | 504 kts | 87° |
| 2026-04-25 18:34 | 43.08512 | -27.34310 | 36125 ft | 504 kts | 88° |
| 2026-04-25 18:35 | 43.08704 | -27.24734 | 36128 ft | 503 kts | 88° |
| 2026-04-25 18:35 | 43.08887 | -27.15154 | 36134 ft | 503 kts | 88° |
| 2026-04-25 18:36 | 43.09063 | -27.05563 | 36131 ft | 503 kts | 88° |
| 2026-04-25 18:36 | 43.09231 | -26.95974 | 36129 ft | 504 kts | 88° |
| 2026-04-25 18:37 | 43.09391 | -26.86385 | 36131 ft | 504 kts | 88° |
| 2026-04-25 18:37 | 43.09542 | -26.76807 | 36126 ft | 503 kts | 88° |
| 2026-04-25 18:38 | 43.09685 | -26.67231 | 36136 ft | 503 kts | 88° |
| 2026-04-25 18:38 | 43.09820 | -26.57720 | 36132 ft | 503 kts | 88° |
| 2026-04-25 18:39 | 43.09948 | -26.48144 | 36129 ft | 503 kts | 88° |
| 2026-04-25 18:39 | 43.10067 | -26.38558 | 36130 ft | 503 kts | 88° |
| 2026-04-25 18:40 | 43.10179 | -26.28991 | 36131 ft | 503 kts | 88° |
| 2026-04-25 18:40 | 43.10282 | -26.19424 | 36130 ft | 503 kts | 88° |
| 2026-04-25 18:41 | 43.10378 | -26.09857 | 36131 ft | 503 kts | 88° |
| 2026-04-25 18:41 | 43.10465 | -26.00348 | 36128 ft | 502 kts | 88° |
| 2026-04-25 18:42 | 43.10519 | -25.93961 | 36132 ft | 501 kts | 88° |
| 2026-04-25 18:42 | 43.10615 | -25.81260 | 36136 ft | 501 kts | 88° |
| 2026-04-25 18:43 | 43.10679 | -25.71732 | 36129 ft | 500 kts | 88° |
| 2026-04-25 18:43 | 43.10734 | -25.62211 | 36129 ft | 500 kts | 88° |
| 2026-04-25 18:44 | 43.10782 | -25.52681 | 36134 ft | 500 kts | 88° |
| 2026-04-25 18:44 | 43.10822 | -25.43159 | 36131 ft | 500 kts | 89° |
| 2026-04-25 18:45 | 43.10853 | -25.33642 | 36129 ft | 500 kts | 89° |
| 2026-04-25 18:45 | 43.10877 | -25.24190 | 36127 ft | 500 kts | 89° |
| 2026-04-25 18:46 | 43.10893 | -25.14677 | 36128 ft | 499 kts | 89° |
| 2026-04-25 18:46 | 43.10901 | -25.05179 | 36133 ft | 499 kts | 89° |
| 2026-04-25 18:47 | 43.10901 | -24.95683 | 36123 ft | 499 kts | 89° |
| 2026-04-25 18:47 | 43.10894 | -24.86197 | 36127 ft | 499 kts | 89° |
| 2026-04-25 18:48 | 43.10878 | -24.76701 | 36120 ft | 499 kts | 89° |
| 2026-04-25 18:48 | 43.10855 | -24.67204 | 36123 ft | 499 kts | 89° |
| 2026-04-25 18:49 | 43.10824 | -24.57701 | 36120 ft | 499 kts | 89° |
| 2026-04-25 18:49 | 43.10785 | -24.48212 | 36127 ft | 499 kts | 89° |
| 2026-04-25 18:50 | 43.10738 | -24.38711 | 36118 ft | 499 kts | 89° |
| 2026-04-25 18:50 | 43.10684 | -24.29214 | 36122 ft | 498 kts | 90° |
| 2026-04-25 18:51 | 43.10643 | -24.22935 | 36112 ft | 498 kts | 90° |
| 2026-04-25 18:51 | 43.10552 | -24.10324 | 36119 ft | 498 kts | 90° |
| 2026-04-25 18:52 | 43.10487 | -24.02439 | 36114 ft | 498 kts | 90° |
| 2026-04-25 18:52 | 43.10403 | -23.92963 | 36110 ft | 498 kts | 90° |
| 2026-04-25 18:53 | 43.10311 | -23.83492 | 36109 ft | 498 kts | 90° |
| 2026-04-25 18:53 | 43.10211 | -23.74017 | 36109 ft | 498 kts | 90° |
| 2026-04-25 18:54 | 43.10046 | -23.59802 | 36105 ft | 498 kts | 90° |
| 2026-04-25 18:55 | 43.09926 | -23.50333 | 36109 ft | 498 kts | 91° |
| 2026-04-25 18:55 | 43.09799 | -23.40851 | 36105 ft | 498 kts | 91° |
| 2026-04-25 18:56 | 43.09664 | -23.31363 | 36104 ft | 498 kts | 91° |
| 2026-04-25 18:56 | 43.09520 | -23.21889 | 36100 ft | 498 kts | 91° |
| 2026-04-25 18:57 | 43.09370 | -23.12465 | 36104 ft | 498 kts | 91° |
| 2026-04-25 18:57 | 43.09212 | -23.03001 | 36105 ft | 498 kts | 92° |
| 2026-04-25 18:58 | 43.09045 | -22.93524 | 36103 ft | 498 kts | 92° |
| 2026-04-25 18:58 | 43.08780 | -22.79297 | 36097 ft | 498 kts | 92° |
| 2026-04-25 18:59 | 43.08401 | -22.60380 | 36101 ft | 499 kts | 92° |
| 2026-04-25 19:00 | 43.08095 | -22.46139 | 36103 ft | 498 kts | 92° |
| 2026-04-25 19:01 | 43.07771 | -22.31915 | 36103 ft | 498 kts | 92° |
| 2026-04-25 19:01 | 43.07546 | -22.22440 | 36103 ft | 498 kts | 92° |
| 2026-04-25 19:02 | 43.07195 | -22.08280 | 36102 ft | 498 kts | 92° |
| 2026-04-25 19:03 | 43.06867 | -21.95665 | 36103 ft | 498 kts | 93° |
| 2026-04-25 19:03 | 43.06567 | -21.84554 | 36104 ft | 501 kts | 93° |
| 2026-04-25 19:04 | 43.06165 | -21.70235 | 36108 ft | 503 kts | 94° |
| 2026-04-25 19:05 | 43.05601 | -21.51150 | 36114 ft | 506 kts | 94° |
| 2026-04-25 19:06 | 43.05303 | -21.41510 | 36110 ft | 508 kts | 94° |
| 2026-04-25 19:06 | 43.04841 | -21.27009 | 36113 ft | 508 kts | 94° |
| 2026-04-25 19:07 | 43.04361 | -21.12520 | 36112 ft | 510 kts | 95° |
| 2026-04-25 19:08 | 43.03856 | -20.97875 | 36116 ft | 515 kts | 95° |
| 2026-04-25 19:09 | 43.03215 | -20.79983 | 36117 ft | 517 kts | 96° |
| 2026-04-25 19:10 | 43.02602 | -20.63561 | 36118 ft | 519 kts | 96° |
| 2026-04-25 19:10 | 43.02223 | -20.53703 | 36119 ft | 519 kts | 96° |
| 2026-04-25 19:11 | 43.01835 | -20.43842 | 36123 ft | 520 kts | 97° |
| 2026-04-25 19:11 | 43.01437 | -20.33962 | 36120 ft | 521 kts | 97° |
| 2026-04-25 19:12 | 43.01033 | -20.24129 | 36125 ft | 521 kts | 97° |
| 2026-04-25 19:12 | 43.00618 | -20.14239 | 36122 ft | 521 kts | 97° |
| 2026-04-25 19:13 | 43.00195 | -20.04337 | 36127 ft | 522 kts | 97° |
| 2026-04-25 19:13 | 43.00595 | -19.94389 | 36126 ft | 526 kts | 86° |
| 2026-04-25 19:14 | 43.01532 | -19.84462 | 36132 ft | 527 kts | 84° |
| 2026-04-25 19:14 | 43.02562 | -19.74538 | 36131 ft | 528 kts | 84° |
| 2026-04-25 19:15 | 43.03576 | -19.64654 | 36130 ft | 529 kts | 84° |
| 2026-04-25 19:15 | 43.04571 | -19.54691 | 36131 ft | 529 kts | 85° |
| 2026-04-25 19:16 | 43.05550 | -19.44719 | 36127 ft | 529 kts | 84° |
| 2026-04-25 19:16 | 43.06518 | -19.34747 | 36138 ft | 529 kts | 84° |
| 2026-04-25 19:17 | 43.07479 | -19.24768 | 36135 ft | 529 kts | 84° |
| 2026-04-25 19:17 | 43.08432 | -19.14789 | 36135 ft | 529 kts | 84° |
| 2026-04-25 19:18 | 43.09378 | -19.04786 | 36139 ft | 529 kts | 84° |
| 2026-04-25 19:18 | 43.10314 | -18.94791 | 36143 ft | 530 kts | 84° |
| 2026-04-25 19:19 | 43.11241 | -18.84793 | 36145 ft | 529 kts | 84° |
| 2026-04-25 19:19 | 43.12161 | -18.74789 | 36147 ft | 529 kts | 85° |
| 2026-04-25 19:20 | 43.13065 | -18.64847 | 36143 ft | 529 kts | 85° |
| 2026-04-25 19:20 | 43.13967 | -18.54837 | 36145 ft | 529 kts | 85° |
| 2026-04-25 19:21 | 43.14859 | -18.44830 | 36147 ft | 529 kts | 85° |
| 2026-04-25 19:21 | 43.16180 | -18.29833 | 36152 ft | 527 kts | 85° |
| 2026-04-25 19:22 | 43.17046 | -18.19863 | 36156 ft | 527 kts | 85° |
| 2026-04-25 19:23 | 43.18324 | -18.04969 | 36154 ft | 526 kts | 85° |
| 2026-04-25 19:23 | 43.19583 | -17.90079 | 36160 ft | 523 kts | 85° |
| 2026-04-25 19:24 | 43.20409 | -17.80176 | 36163 ft | 521 kts | 86° |
| 2026-04-25 19:25 | 43.22024 | -17.60493 | 36170 ft | 518 kts | 86° |
| 2026-04-25 19:25 | 43.22817 | -17.50660 | 36171 ft | 518 kts | 86° |
| 2026-04-25 19:26 | 43.23597 | -17.40896 | 36173 ft | 518 kts | 86° |
| 2026-04-25 19:26 | 43.24374 | -17.31067 | 36176 ft | 518 kts | 86° |
| 2026-04-25 19:27 | 43.24889 | -17.24479 | 36175 ft | 518 kts | 86° |
| 2026-04-25 19:27 | 43.25902 | -17.11391 | 36178 ft | 518 kts | 86° |
| 2026-04-25 19:28 | 43.26654 | -17.01545 | 36178 ft | 518 kts | 87° |
| 2026-04-25 19:28 | 43.27396 | -16.91710 | 36182 ft | 518 kts | 87° |
| 2026-04-25 19:29 | 43.28130 | -16.81873 | 36186 ft | 518 kts | 87° |
| 2026-04-25 19:29 | 43.28855 | -16.72038 | 36189 ft | 518 kts | 87° |
| 2026-04-25 19:30 | 43.29572 | -16.62205 | 36194 ft | 518 kts | 87° |
| 2026-04-25 19:30 | 43.30276 | -16.52434 | 36191 ft | 517 kts | 87° |
| 2026-04-25 19:31 | 43.30976 | -16.42592 | 36197 ft | 517 kts | 87° |
| 2026-04-25 19:31 | 43.31667 | -16.32751 | 36190 ft | 517 kts | 87° |
| 2026-04-25 19:32 | 43.32348 | -16.22930 | 36203 ft | 517 kts | 88° |
| 2026-04-25 19:32 | 43.32799 | -16.16361 | 36197 ft | 516 kts | 88° |
| 2026-04-25 19:33 | 43.33687 | -16.03269 | 36203 ft | 517 kts | 88° |
| 2026-04-25 19:33 | 43.34342 | -15.93444 | 36196 ft | 516 kts | 88° |
| 2026-04-25 19:34 | 43.34985 | -15.83694 | 36203 ft | 515 kts | 88° |
| 2026-04-25 19:34 | 43.35624 | -15.73870 | 36199 ft | 515 kts | 88° |
| 2026-04-25 19:35 | 43.36254 | -15.64057 | 36191 ft | 515 kts | 88° |
| 2026-04-25 19:35 | 43.36874 | -15.54250 | 36210 ft | 514 kts | 88° |
| 2026-04-25 19:36 | 43.37485 | -15.44480 | 36210 ft | 513 kts | 88° |
| 2026-04-25 19:36 | 43.38086 | -15.34712 | 36208 ft | 513 kts | 88° |
| 2026-04-25 19:37 | 43.38675 | -15.25005 | 36217 ft | 512 kts | 88° |
| 2026-04-25 19:37 | 43.39259 | -15.15236 | 36217 ft | 512 kts | 88° |
| 2026-04-25 19:38 | 43.39739 | -15.07109 | 36216 ft | 512 kts | 88° |
| 2026-04-25 19:38 | 43.40402 | -14.95725 | 36216 ft | 512 kts | 88° |
| 2026-04-25 19:39 | 43.40870 | -14.87549 | 36216 ft | 512 kts | 88° |
| 2026-04-25 19:39 | 43.41421 | -14.77803 | 36219 ft | 511 kts | 88° |
| 2026-04-25 19:40 | 43.41964 | -14.68060 | 36219 ft | 511 kts | 88° |
| 2026-04-25 19:40 | 43.42498 | -14.58314 | 36222 ft | 511 kts | 88° |
| 2026-04-25 19:41 | 43.43021 | -14.48619 | 36222 ft | 510 kts | 88° |
| 2026-04-25 19:41 | 43.43451 | -14.40529 | 36222 ft | 510 kts | 88° |
| 2026-04-25 19:42 | 43.44047 | -14.29144 | 36225 ft | 510 kts | 88° |
| 2026-04-25 19:42 | 43.44547 | -14.19407 | 36216 ft | 510 kts | 88° |
| 2026-04-25 19:43 | 43.45040 | -14.09660 | 36221 ft | 510 kts | 88° |
| 2026-04-25 19:43 | 43.45524 | -13.99915 | 36224 ft | 510 kts | 88° |
| 2026-04-25 19:44 | 43.46001 | -13.90163 | 36227 ft | 510 kts | 88° |
| 2026-04-25 19:44 | 43.46465 | -13.80479 | 36220 ft | 509 kts | 88° |
| 2026-04-25 19:45 | 43.46923 | -13.70766 | 36227 ft | 508 kts | 88° |
| 2026-04-25 19:45 | 43.47372 | -13.61057 | 36227 ft | 508 kts | 88° |
| 2026-04-25 19:46 | 43.47814 | -13.51325 | 36227 ft | 508 kts | 88° |
| 2026-04-25 19:46 | 43.48247 | -13.41601 | 36227 ft | 508 kts | 88° |
| 2026-04-25 19:47 | 43.48669 | -13.31948 | 36230 ft | 508 kts | 88° |
| 2026-04-25 19:47 | 43.49086 | -13.22225 | 36230 ft | 508 kts | 88° |
| 2026-04-25 19:48 | 43.49494 | -13.12512 | 36227 ft | 508 kts | 88° |
| 2026-04-25 19:48 | 43.49892 | -13.02818 | 36232 ft | 505 kts | 88° |
| 2026-04-25 19:49 | 43.49860 | -12.94804 | 36230 ft | 503 kts | 93° |
| 2026-04-25 19:49 | 43.49589 | -12.83560 | 36225 ft | 502 kts | 93° |
| 2026-04-25 19:50 | 43.49166 | -12.69209 | 36230 ft | 500 kts | 94° |
| 2026-04-25 19:51 | 43.48881 | -12.59636 | 36230 ft | 499 kts | 94° |
| 2026-04-25 19:51 | 43.48593 | -12.50080 | 36230 ft | 499 kts | 94° |
| 2026-04-25 19:52 | 43.48298 | -12.40518 | 36220 ft | 499 kts | 94° |
| 2026-04-25 19:52 | 43.47995 | -12.30966 | 36225 ft | 499 kts | 94° |
| 2026-04-25 19:53 | 43.47685 | -12.21421 | 36227 ft | 499 kts | 94° |
| 2026-04-25 19:53 | 43.47368 | -12.11948 | 36224 ft | 499 kts | 94° |
| 2026-04-25 19:54 | 43.47042 | -12.02400 | 36223 ft | 499 kts | 94° |
| 2026-04-25 19:54 | 43.46707 | -11.92856 | 36225 ft | 498 kts | 94° |
| 2026-04-25 19:55 | 43.46366 | -11.83336 | 36222 ft | 498 kts | 95° |
| 2026-04-25 19:55 | 43.46016 | -11.73817 | 36219 ft | 498 kts | 95° |
| 2026-04-25 19:56 | 43.45658 | -11.64292 | 36222 ft | 498 kts | 95° |
| 2026-04-25 19:56 | 43.45295 | -11.54830 | 36222 ft | 498 kts | 95° |
| 2026-04-25 19:57 | 43.44921 | -11.45296 | 36226 ft | 498 kts | 95° |
| 2026-04-25 19:57 | 43.44540 | -11.35789 | 36218 ft | 497 kts | 95° |
| 2026-04-25 19:58 | 43.44152 | -11.26283 | 36213 ft | 497 kts | 95° |
| 2026-04-25 19:58 | 43.43759 | -11.16849 | 36214 ft | 496 kts | 95° |
| 2026-04-25 19:59 | 43.43354 | -11.07344 | 36218 ft | 496 kts | 95° |
| 2026-04-25 19:59 | 43.42943 | -10.97873 | 36221 ft | 496 kts | 95° |
| 2026-04-25 20:00 | 43.42523 | -10.88386 | 36219 ft | 497 kts | 96° |
| 2026-04-25 20:00 | 43.42095 | -10.78887 | 36220 ft | 498 kts | 96° |
| 2026-04-25 20:01 | 43.41441 | -10.64693 | 36214 ft | 497 kts | 96° |
| 2026-04-25 20:01 | 43.40993 | -10.55190 | 36207 ft | 497 kts | 95° |
| 2026-04-25 20:02 | 43.40538 | -10.45687 | 36211 ft | 497 kts | 96° |
| 2026-04-25 20:02 | 43.40074 | -10.36187 | 36210 ft | 497 kts | 96° |
| 2026-04-25 20:03 | 43.39606 | -10.26762 | 36209 ft | 497 kts | 96° |
| 2026-04-25 20:03 | 43.39127 | -10.17275 | 36206 ft | 496 kts | 96° |
| 2026-04-25 20:04 | 43.38643 | -10.07822 | 36208 ft | 494 kts | 96° |
| 2026-04-25 20:04 | 43.38152 | -9.98407 | 36202 ft | 493 kts | 96° |
| 2026-04-25 20:05 | 43.37653 | -9.88999 | 36197 ft | 493 kts | 96° |
| 2026-04-25 20:05 | 43.37147 | -9.79594 | 36192 ft | 493 kts | 96° |
| 2026-04-25 20:06 | 43.36633 | -9.70177 | 36198 ft | 494 kts | 96° |
| 2026-04-25 20:06 | 43.36114 | -9.60820 | 36192 ft | 494 kts | 96° |
| 2026-04-25 20:07 | 43.35584 | -9.51400 | 36184 ft | 494 kts | 96° |
| 2026-04-25 20:07 | 43.35046 | -9.41979 | 36180 ft | 494 kts | 96° |
| 2026-04-25 20:08 | 43.34502 | -9.32586 | 36175 ft | 493 kts | 96° |
| 2026-04-25 20:08 | 43.33951 | -9.23199 | 36168 ft | 493 kts | 96° |
| 2026-04-25 20:09 | 43.33392 | -9.13816 | 36171 ft | 493 kts | 96° |
| 2026-04-25 20:09 | 43.32824 | -9.04425 | 36167 ft | 493 kts | 95° |
| 2026-04-25 20:10 | 43.32249 | -8.95045 | 36180 ft | 493 kts | 96° |
| 2026-04-25 20:10 | 43.31667 | -8.85662 | 36165 ft | 493 kts | 96° |
| 2026-04-25 20:11 | 43.31078 | -8.76287 | 36155 ft | 493 kts | 96° |
| 2026-04-25 20:11 | 43.30484 | -8.66976 | 36163 ft | 493 kts | 95° |
| 2026-04-25 20:12 | 43.29875 | -8.57553 | 36145 ft | 492 kts | 95° |
| 2026-04-25 20:12 | 43.29471 | -8.51359 | 36158 ft | 492 kts | 95° |
| 2026-04-25 20:13 | 43.28649 | -8.38917 | 36164 ft | 492 kts | 95° |
| 2026-04-25 20:13 | 43.28023 | -8.29574 | 36302 ft | 491 kts | 95° |
| 2026-04-25 20:14 | 43.27709 | -8.24941 | 36804 ft | 484 kts | 95° |
| 2026-04-25 20:14 | 43.27397 | -8.20367 | 37235 ft | 479 kts | 95° |
| 2026-04-25 20:14 | 43.27086 | -8.15822 | 37541 ft | 476 kts | 95° |
| 2026-04-25 20:14 | 43.26778 | -8.11353 | 37781 ft | 475 kts | 95° |
| 2026-04-25 20:15 | 43.26466 | -8.06840 | 38007 ft | 475 kts | 95° |
| 2026-04-25 20:15 | 43.26152 | -8.02331 | 38216 ft | 474 kts | 95° |
| 2026-04-25 20:15 | 43.25836 | -7.97821 | 38426 ft | 474 kts | 95° |
| 2026-04-25 20:15 | 43.25519 | -7.93322 | 38634 ft | 473 kts | 95° |
| 2026-04-25 20:16 | 43.25201 | -7.88828 | 38841 ft | 473 kts | 95° |
| 2026-04-25 20:16 | 43.24881 | -7.84346 | 38989 ft | 472 kts | 95° |
| 2026-04-25 20:16 | 43.24561 | -7.79873 | 39131 ft | 472 kts | 95° |
| 2026-04-25 20:16 | 43.24237 | -7.75376 | 39164 ft | 474 kts | 96° |
| 2026-04-25 20:17 | 43.23577 | -7.66298 | 39169 ft | 481 kts | 96° |
| 2026-04-25 20:17 | 43.22906 | -7.57171 | 39173 ft | 485 kts | 95° |
| 2026-04-25 20:18 | 43.22223 | -7.47971 | 39173 ft | 485 kts | 95° |
| 2026-04-25 20:18 | 43.21533 | -7.38774 | 39176 ft | 485 kts | 95° |
| 2026-04-25 20:19 | 43.20664 | -7.29595 | 39176 ft | 485 kts | 98° |
| 2026-04-25 20:19 | 43.19546 | -7.20468 | 39168 ft | 485 kts | 99° |
| 2026-04-25 20:20 | 43.18401 | -7.11387 | 39162 ft | 483 kts | 99° |
| 2026-04-25 20:20 | 43.17279 | -7.02322 | 39162 ft | 482 kts | 98° |
| 2026-04-25 20:21 | 43.16177 | -6.93318 | 39170 ft | 482 kts | 98° |
| 2026-04-25 20:21 | 43.15064 | -6.84258 | 39178 ft | 482 kts | 98° |
| 2026-04-25 20:22 | 43.14316 | -6.78205 | 39166 ft | 481 kts | 98° |
| 2026-04-25 20:22 | 43.12821 | -6.66197 | 39172 ft | 480 kts | 98° |
| 2026-04-25 20:23 | 43.11690 | -6.57182 | 39171 ft | 480 kts | 98° |
| 2026-04-25 20:23 | 43.10551 | -6.48175 | 39178 ft | 480 kts | 98° |
| 2026-04-25 20:24 | 43.09406 | -6.39174 | 39175 ft | 480 kts | 98° |
| 2026-04-25 20:24 | 43.08251 | -6.30158 | 39173 ft | 481 kts | 99° |
| 2026-04-25 20:25 | 43.07286 | -6.22668 | 39181 ft | 481 kts | 99° |
| 2026-04-25 20:25 | 43.05930 | -6.12197 | 39180 ft | 481 kts | 99° |
| 2026-04-25 20:26 | 43.04945 | -6.04655 | 39190 ft | 481 kts | 99° |
| 2026-04-25 20:26 | 43.03764 | -5.95656 | 39190 ft | 481 kts | 99° |
| 2026-04-25 20:27 | 43.02582 | -5.86721 | 39182 ft | 480 kts | 99° |
| 2026-04-25 20:27 | 43.01388 | -5.77727 | 39190 ft | 481 kts | 99° |
| 2026-04-25 20:28 | 43.00186 | -5.68741 | 39190 ft | 480 kts | 99° |
| 2026-04-25 20:28 | 42.98979 | -5.59772 | 39194 ft | 480 kts | 99° |
| 2026-04-25 20:29 | 42.97765 | -5.50809 | 39196 ft | 480 kts | 99° |
| 2026-04-25 20:29 | 42.96546 | -5.41854 | 39189 ft | 480 kts | 99° |
| 2026-04-25 20:30 | 42.95320 | -5.32904 | 39200 ft | 480 kts | 99° |
| 2026-04-25 20:30 | 42.94082 | -5.23929 | 39198 ft | 480 kts | 99° |
| 2026-04-25 20:31 | 42.92843 | -5.15005 | 39202 ft | 480 kts | 100° |
| 2026-04-25 20:31 | 42.91593 | -5.06057 | 39202 ft | 480 kts | 100° |
| 2026-04-25 20:32 | 42.90338 | -4.97110 | 39201 ft | 480 kts | 100° |
| 2026-04-25 20:32 | 42.89076 | -4.88177 | 39202 ft | 480 kts | 101° |
| 2026-04-25 20:33 | 42.87807 | -4.79248 | 39207 ft | 480 kts | 101° |
| 2026-04-25 20:33 | 42.86746 | -4.71820 | 39211 ft | 480 kts | 101° |
| 2026-04-25 20:34 | 42.85253 | -4.61432 | 39212 ft | 480 kts | 101° |
| 2026-04-25 20:34 | 42.83963 | -4.52512 | 39215 ft | 480 kts | 101° |
| 2026-04-25 20:35 | 42.82665 | -4.43588 | 39213 ft | 480 kts | 101° |
| 2026-04-25 20:35 | 42.81359 | -4.34653 | 39219 ft | 480 kts | 101° |
| 2026-04-25 20:36 | 42.80046 | -4.25727 | 39220 ft | 480 kts | 101° |
| 2026-04-25 20:36 | 42.78725 | -4.16799 | 39221 ft | 480 kts | 101° |
| 2026-04-25 20:37 | 42.77398 | -4.07882 | 39216 ft | 481 kts | 101° |
| 2026-04-25 20:37 | 42.76064 | -3.98969 | 39217 ft | 481 kts | 101° |
| 2026-04-25 20:38 | 42.74723 | -3.90058 | 39226 ft | 481 kts | 101° |
| 2026-04-25 20:38 | 42.74049 | -3.85595 | 39331 ft | 481 kts | 102° |
| 2026-04-25 20:38 | 42.73372 | -3.81129 | 39470 ft | 481 kts | 102° |
| 2026-04-25 20:39 | 42.72703 | -3.76725 | 39616 ft | 480 kts | 101° |
| 2026-04-25 20:39 | 42.72024 | -3.72268 | 39741 ft | 480 kts | 101° |
| 2026-04-25 20:39 | 42.71344 | -3.67819 | 39854 ft | 481 kts | 102° |
| 2026-04-25 20:39 | 42.70893 | -3.64872 | 39923 ft | 481 kts | 102° |
| 2026-04-25 20:40 | 42.69979 | -3.58919 | 40070 ft | 481 kts | 102° |
| 2026-04-25 20:40 | 42.69292 | -3.54461 | 40179 ft | 481 kts | 102° |
| 2026-04-25 20:40 | 42.67913 | -3.45540 | 40202 ft | 482 kts | 102° |
| 2026-04-25 20:41 | 42.66525 | -3.36619 | 40200 ft | 482 kts | 102° |
| 2026-04-25 20:41 | 42.65140 | -3.27758 | 40200 ft | 482 kts | 102° |
| 2026-04-25 20:42 | 42.63739 | -3.18851 | 40198 ft | 482 kts | 102° |
| 2026-04-25 20:42 | 42.62330 | -3.09935 | 40198 ft | 482 kts | 102° |
| 2026-04-25 20:43 | 42.60916 | -3.01033 | 40198 ft | 482 kts | 102° |
| 2026-04-25 20:43 | 42.59494 | -2.92130 | 40198 ft | 483 kts | 102° |
| 2026-04-25 20:44 | 42.58062 | -2.83215 | 40195 ft | 483 kts | 102° |
| 2026-04-25 20:44 | 42.56625 | -2.74316 | 40191 ft | 483 kts | 102° |
| 2026-04-25 20:45 | 42.55181 | -2.65416 | 40179 ft | 483 kts | 102° |
| 2026-04-25 20:45 | 42.53729 | -2.56519 | 40165 ft | 484 kts | 102° |
| 2026-04-25 20:46 | 42.52269 | -2.47615 | 40160 ft | 484 kts | 102° |
| 2026-04-25 20:46 | 42.50804 | -2.38717 | 40156 ft | 484 kts | 102° |
| 2026-04-25 20:47 | 42.49342 | -2.29817 | 40157 ft | 484 kts | 102° |
| 2026-04-25 20:47 | 42.47869 | -2.20919 | 40158 ft | 484 kts | 102° |
| 2026-04-25 20:48 | 42.46379 | -2.12011 | 40155 ft | 485 kts | 102° |
| 2026-04-25 20:48 | 42.44890 | -2.03169 | 40154 ft | 485 kts | 102° |
| 2026-04-25 20:49 | 42.43383 | -1.94268 | 40150 ft | 485 kts | 102° |
| 2026-04-25 20:49 | 42.42024 | -1.85339 | 40143 ft | 484 kts | 99° |
| 2026-04-25 20:50 | 42.40927 | -1.76341 | 40139 ft | 484 kts | 98° |
| 2026-04-25 20:50 | 42.39858 | -1.67342 | 40135 ft | 484 kts | 98° |
| 2026-04-25 20:51 | 42.38755 | -1.58362 | 40134 ft | 484 kts | 99° |
| 2026-04-25 20:51 | 42.37626 | -1.49397 | 40133 ft | 482 kts | 99° |
| 2026-04-25 20:52 | 42.36682 | -1.41990 | 40132 ft | 479 kts | 99° |
| 2026-04-25 20:52 | 42.35358 | -1.31680 | 40121 ft | 479 kts | 99° |
| 2026-04-25 20:53 | 42.34216 | -1.22817 | 40121 ft | 479 kts | 99° |
| 2026-04-25 20:53 | 42.33067 | -1.13953 | 40123 ft | 479 kts | 100° |
| 2026-04-25 20:54 | 42.31915 | -1.05120 | 40121 ft | 475 kts | 100° |
| 2026-04-25 20:54 | 42.30760 | -0.96340 | 40121 ft | 474 kts | 100° |
| 2026-04-25 20:55 | 42.29599 | -0.87552 | 40118 ft | 474 kts | 100° |
| 2026-04-25 20:55 | 42.28433 | -0.78772 | 40118 ft | 474 kts | 100° |
| 2026-04-25 20:56 | 42.27260 | -0.69999 | 40114 ft | 473 kts | 101° |
| 2026-04-25 20:56 | 42.26083 | -0.61260 | 40112 ft | 473 kts | 101° |
| 2026-04-25 20:57 | 42.24908 | -0.52591 | 40121 ft | 473 kts | 101° |
| 2026-04-25 20:57 | 42.23719 | -0.43857 | 40127 ft | 473 kts | 101° |
| 2026-04-25 20:58 | 42.22523 | -0.35128 | 40126 ft | 473 kts | 101° |
| 2026-04-25 20:58 | 42.21335 | -0.26398 | 40132 ft | 473 kts | 98° |
| 2026-04-25 20:59 | 42.20756 | -0.17561 | 40132 ft | 473 kts | 94° |
| 2026-04-25 20:59 | 42.20370 | -0.08758 | 40132 ft | 473 kts | 94° |
| 2026-04-25 21:00 | 42.20132 | -0.02830 | 40135 ft | 474 kts | 94° |
| 2026-04-25 21:01 | 42.19452 | 0.13482 | 40130 ft | 475 kts | 94° |
| 2026-04-25 21:01 | 42.19061 | 0.22392 | 40131 ft | 475 kts | 94° |
| 2026-04-25 21:02 | 42.18665 | 0.31224 | 40137 ft | 475 kts | 93° |
| 2026-04-25 21:02 | 42.18272 | 0.40120 | 40138 ft | 475 kts | 94° |
| 2026-04-25 21:03 | 42.17868 | 0.49030 | 40143 ft | 476 kts | 94° |
| 2026-04-25 21:03 | 42.17450 | 0.57946 | 40143 ft | 477 kts | 94° |
| 2026-04-25 21:04 | 42.17022 | 0.66862 | 40150 ft | 477 kts | 94° |
| 2026-04-25 21:04 | 42.16587 | 0.75781 | 40152 ft | 477 kts | 94° |
| 2026-04-25 21:05 | 42.16143 | 0.84714 | 40159 ft | 479 kts | 94° |
| 2026-04-25 21:05 | 42.15691 | 0.93683 | 40164 ft | 480 kts | 94° |
| 2026-04-25 21:06 | 42.15234 | 1.02590 | 40150 ft | 480 kts | 94° |
| 2026-04-25 21:06 | 42.14770 | 1.11551 | 40146 ft | 479 kts | 94° |
| 2026-04-25 21:07 | 42.14298 | 1.20530 | 40142 ft | 481 kts | 94° |
| 2026-04-25 21:07 | 42.13816 | 1.29523 | 40139 ft | 482 kts | 94° |
| 2026-04-25 21:08 | 42.13264 | 1.38531 | 40143 ft | 482 kts | 95° |
| 2026-04-25 21:08 | 42.12618 | 1.47529 | 40148 ft | 482 kts | 96° |
| 2026-04-25 21:09 | 42.11629 | 1.61012 | 40155 ft | 481 kts | 95° |
| 2026-04-25 21:09 | 42.11085 | 1.68455 | 40157 ft | 480 kts | 95° |
| 2026-04-25 21:10 | 42.10321 | 1.78874 | 40159 ft | 480 kts | 95° |
| 2026-04-25 21:10 | 42.09766 | 1.86368 | 40150 ft | 480 kts | 95° |
| 2026-04-25 21:11 | 42.09101 | 1.95268 | 40152 ft | 481 kts | 96° |
| 2026-04-25 21:11 | 42.08423 | 2.04233 | 40143 ft | 481 kts | 96° |
| 2026-04-25 21:12 | 42.07737 | 2.13203 | 40144 ft | 481 kts | 96° |
| 2026-04-25 21:12 | 42.07162 | 2.20650 | 40137 ft | 481 kts | 96° |
| 2026-04-25 21:13 | 42.06349 | 2.31066 | 40129 ft | 481 kts | 96° |
| 2026-04-25 21:13 | 42.05641 | 2.40024 | 40124 ft | 481 kts | 96° |
| 2026-04-25 21:14 | 42.04926 | 2.48983 | 40109 ft | 482 kts | 96° |
| 2026-04-25 21:14 | 42.04203 | 2.57956 | 40108 ft | 482 kts | 96° |
| 2026-04-25 21:15 | 42.03477 | 2.66918 | 40104 ft | 482 kts | 96° |
| 2026-04-25 21:15 | 42.02748 | 2.75813 | 40101 ft | 482 kts | 96° |
| 2026-04-25 21:16 | 42.02006 | 2.84762 | 40096 ft | 481 kts | 96° |
| 2026-04-25 21:16 | 42.01258 | 2.93712 | 40094 ft | 481 kts | 96° |
| 2026-04-25 21:17 | 42.00503 | 3.02651 | 40092 ft | 479 kts | 96° |
| 2026-04-25 21:17 | 41.99752 | 3.11452 | 40093 ft | 471 kts | 96° |
| 2026-04-25 21:18 | 41.99000 | 3.20185 | 40097 ft | 470 kts | 96° |
| 2026-04-25 21:18 | 41.98241 | 3.28914 | 40102 ft | 470 kts | 96° |
| 2026-04-25 21:19 | 41.97477 | 3.37638 | 40110 ft | 470 kts | 97° |
| 2026-04-25 21:19 | 41.96706 | 3.46371 | 40111 ft | 470 kts | 97° |
| 2026-04-25 21:20 | 41.96060 | 3.53625 | 40116 ft | 470 kts | 97° |
| 2026-04-25 21:20 | 41.95150 | 3.63754 | 40117 ft | 470 kts | 97° |
| 2026-04-25 21:21 | 41.94359 | 3.72470 | 40116 ft | 470 kts | 97° |
| 2026-04-25 21:21 | 41.93562 | 3.81191 | 40122 ft | 470 kts | 97° |
| 2026-04-25 21:22 | 41.93028 | 3.89939 | 40122 ft | 471 kts | 87° |
| 2026-04-25 21:22 | 41.94226 | 3.98537 | 40123 ft | 470 kts | 69° |
| 2026-04-25 21:23 | 41.96668 | 4.06697 | 40120 ft | 471 kts | 65° |
| 2026-04-25 21:23 | 41.99329 | 4.14750 | 40122 ft | 471 kts | 65° |
| 2026-04-25 21:24 | 42.01980 | 4.22759 | 40122 ft | 472 kts | 65° |
| 2026-04-25 21:24 | 42.04606 | 4.30835 | 40119 ft | 471 kts | 65° |
| 2026-04-25 21:25 | 42.07735 | 4.38605 | 40123 ft | 475 kts | 58° |
| 2026-04-25 21:25 | 42.11206 | 4.46316 | 40120 ft | 481 kts | 57° |
| 2026-04-25 21:26 | 42.14726 | 4.54020 | 40116 ft | 483 kts | 57° |
| 2026-04-25 21:26 | 42.18235 | 4.61739 | 40120 ft | 482 kts | 57° |
| 2026-04-25 21:27 | 42.21702 | 4.69413 | 40115 ft | 482 kts | 57° |
| 2026-04-25 21:27 | 42.25184 | 4.77149 | 40113 ft | 482 kts | 57° |
| 2026-04-25 21:28 | 42.28664 | 4.84899 | 40112 ft | 482 kts | 57° |
| 2026-04-25 21:28 | 42.32134 | 4.92652 | 40113 ft | 482 kts | 57° |
| 2026-04-25 21:29 | 42.35596 | 5.00408 | 40111 ft | 481 kts | 57° |
| 2026-04-25 21:29 | 42.39051 | 5.08160 | 40109 ft | 481 kts | 57° |
| 2026-04-25 21:30 | 42.42495 | 5.15911 | 40108 ft | 481 kts | 57° |
| 2026-04-25 21:30 | 42.45360 | 5.22376 | 40114 ft | 481 kts | 58° |
| 2026-04-25 21:31 | 42.49353 | 5.31410 | 40115 ft | 481 kts | 58° |
| 2026-04-25 21:31 | 42.52781 | 5.39189 | 40114 ft | 480 kts | 57° |
| 2026-04-25 21:32 | 42.56192 | 5.46950 | 40111 ft | 479 kts | 58° |
| 2026-04-25 21:32 | 42.59598 | 5.54716 | 40111 ft | 479 kts | 58° |
| 2026-04-25 21:33 | 42.62999 | 5.62496 | 40111 ft | 479 kts | 58° |
| 2026-04-25 21:33 | 42.66392 | 5.70276 | 40113 ft | 479 kts | 58° |
| 2026-04-25 21:34 | 42.69780 | 5.78066 | 40111 ft | 478 kts | 58° |
| 2026-04-25 21:34 | 42.73133 | 5.85798 | 40109 ft | 477 kts | 57° |
| 2026-04-25 21:35 | 42.76505 | 5.93586 | 40109 ft | 477 kts | 58° |
| 2026-04-25 21:35 | 42.79877 | 6.01396 | 40106 ft | 477 kts | 58° |
| 2026-04-25 21:36 | 42.83242 | 6.09212 | 40092 ft | 477 kts | 57° |
| 2026-04-25 21:36 | 42.86596 | 6.17025 | 40093 ft | 477 kts | 57° |
| 2026-04-25 21:37 | 42.89379 | 6.23529 | 40099 ft | 478 kts | 58° |
| 2026-04-25 21:37 | 42.93267 | 6.32634 | 40100 ft | 478 kts | 57° |
| 2026-04-25 21:38 | 42.96606 | 6.40475 | 40095 ft | 478 kts | 58° |
| 2026-04-25 21:38 | 42.99941 | 6.48330 | 40102 ft | 478 kts | 58° |
| 2026-04-25 21:39 | 43.03274 | 6.56196 | 40101 ft | 478 kts | 58° |
| 2026-04-25 21:39 | 43.06600 | 6.64070 | 40098 ft | 478 kts | 58° |
| 2026-04-25 21:40 | 43.09923 | 6.71959 | 40099 ft | 478 kts | 58° |
| 2026-04-25 21:40 | 43.13213 | 6.79792 | 40101 ft | 478 kts | 58° |
| 2026-04-25 21:41 | 43.16519 | 6.87685 | 40105 ft | 478 kts | 58° |
| 2026-04-25 21:41 | 43.19823 | 6.95597 | 40099 ft | 478 kts | 58° |
| 2026-04-25 21:42 | 43.23121 | 7.03511 | 40105 ft | 478 kts | 58° |
| 2026-04-25 21:42 | 43.26414 | 7.11434 | 40100 ft | 478 kts | 58° |
| 2026-04-25 21:43 | 43.29705 | 7.19375 | 40102 ft | 478 kts | 58° |
| 2026-04-25 21:43 | 43.32964 | 7.27261 | 40102 ft | 478 kts | 59° |
| 2026-04-25 21:44 | 43.36238 | 7.35205 | 40105 ft | 478 kts | 58° |
| 2026-04-25 21:45 | 43.41137 | 7.47138 | 40103 ft | 478 kts | 59° |
| 2026-04-25 21:45 | 43.44396 | 7.55099 | 40104 ft | 477 kts | 59° |
| 2026-04-25 21:46 | 43.47652 | 7.63073 | 40101 ft | 477 kts | 59° |
| 2026-04-25 21:46 | 43.51245 | 7.70734 | 40107 ft | 474 kts | 47° |
| 2026-04-25 21:47 | 43.55699 | 7.77431 | 40108 ft | 474 kts | 44° |
| 2026-04-25 21:47 | 43.60317 | 7.83926 | 40117 ft | 474 kts | 43° |
| 2026-04-25 21:48 | 43.64925 | 7.90354 | 40115 ft | 474 kts | 43° |
| 2026-04-25 21:48 | 43.69546 | 7.96854 | 40098 ft | 474 kts | 44° |
| 2026-04-25 21:49 | 43.74161 | 8.03388 | 40102 ft | 474 kts | 44° |
| 2026-04-25 21:49 | 43.78767 | 8.09929 | 40108 ft | 474 kts | 44° |
| 2026-04-25 21:50 | 43.83366 | 8.16480 | 40109 ft | 474 kts | 44° |
| 2026-04-25 21:50 | 43.87963 | 8.23042 | 40107 ft | 474 kts | 44° |
| 2026-04-25 21:51 | 43.92524 | 8.29565 | 40111 ft | 474 kts | 44° |
| 2026-04-25 21:51 | 43.97114 | 8.36145 | 40111 ft | 474 kts | 44° |
| 2026-04-25 21:52 | 44.01713 | 8.42752 | 40110 ft | 475 kts | 44° |
| 2026-04-25 21:52 | 44.06300 | 8.49365 | 40113 ft | 475 kts | 44° |
| 2026-04-25 21:53 | 44.10884 | 8.55988 | 40116 ft | 475 kts | 44° |
| 2026-04-25 21:53 | 44.15439 | 8.62580 | 40111 ft | 475 kts | 44° |
| 2026-04-25 21:54 | 44.20016 | 8.69220 | 40113 ft | 475 kts | 44° |
| 2026-04-25 21:54 | 44.24595 | 8.75880 | 40113 ft | 475 kts | 44° |
| 2026-04-25 21:55 | 44.29171 | 8.82550 | 40120 ft | 476 kts | 44° |
| 2026-04-25 21:55 | 44.33744 | 8.89234 | 40102 ft | 476 kts | 44° |
| 2026-04-25 21:56 | 44.37546 | 8.94802 | 40102 ft | 476 kts | 44° |
| 2026-04-25 21:56 | 44.42855 | 9.02599 | 40104 ft | 476 kts | 44° |
| 2026-04-25 21:57 | 44.46653 | 9.08187 | 40107 ft | 476 kts | 44° |
| 2026-04-25 21:57 | 44.51213 | 9.14912 | 40104 ft | 476 kts | 44° |
| 2026-04-25 21:58 | 44.55776 | 9.21659 | 40103 ft | 477 kts | 44° |
| 2026-04-25 21:58 | 44.60335 | 9.28417 | 40107 ft | 477 kts | 44° |
| 2026-04-25 21:59 | 44.64892 | 9.35188 | 40104 ft | 477 kts | 44° |
| 2026-04-25 21:59 | 44.69447 | 9.41975 | 40092 ft | 478 kts | 44° |
| 2026-04-25 22:00 | 44.76281 | 9.52183 | 40084 ft | 477 kts | 44° |
| 2026-04-25 22:00 | 44.80834 | 9.59005 | 40082 ft | 478 kts | 44° |
| 2026-04-25 22:01 | 44.85380 | 9.65835 | 40058 ft | 478 kts | 44° |
| 2026-04-25 22:01 | 44.89160 | 9.71527 | 40061 ft | 478 kts | 44° |
| 2026-04-25 22:02 | 44.94435 | 9.79491 | 40045 ft | 478 kts | 44° |
| 2026-04-25 22:02 | 44.98969 | 9.86353 | 40029 ft | 477 kts | 44° |
| 2026-04-25 22:03 | 45.03494 | 9.93219 | 40020 ft | 476 kts | 44° |
| 2026-04-25 22:03 | 45.08008 | 10.00084 | 40020 ft | 476 kts | 44° |
| 2026-04-25 22:04 | 45.12426 | 10.07015 | 40013 ft | 478 kts | 48° |
| 2026-04-25 22:04 | 45.16505 | 10.14486 | 40009 ft | 479 kts | 50° |
| 2026-04-25 22:05 | 45.20439 | 10.22122 | 40007 ft | 479 kts | 51° |
| 2026-04-25 22:05 | 45.24338 | 10.29792 | 40003 ft | 479 kts | 51° |
| 2026-04-25 22:06 | 45.28252 | 10.37482 | 40042 ft | 479 kts | 51° |
| 2026-04-25 22:06 | 45.32161 | 10.45158 | 40046 ft | 479 kts | 51° |
| 2026-04-25 22:07 | 45.35410 | 10.51546 | 40042 ft | 479 kts | 51° |
| 2026-04-25 22:07 | 45.39947 | 10.60490 | 40039 ft | 480 kts | 51° |
| 2026-04-25 22:08 | 45.43842 | 10.68199 | 40020 ft | 480 kts | 51° |
| 2026-04-25 22:08 | 45.47733 | 10.75928 | 40024 ft | 480 kts | 51° |
| 2026-04-25 22:09 | 45.51598 | 10.83614 | 40021 ft | 480 kts | 51° |
| 2026-04-25 22:09 | 45.55481 | 10.91357 | 40021 ft | 480 kts | 51° |
| 2026-04-25 22:10 | 45.59365 | 10.99122 | 40028 ft | 480 kts | 52° |
| 2026-04-25 22:10 | 45.63241 | 11.06892 | 40056 ft | 481 kts | 51° |
| 2026-04-25 22:11 | 45.67116 | 11.14681 | 40045 ft | 481 kts | 51° |
| 2026-04-25 22:11 | 45.70988 | 11.22487 | 40061 ft | 481 kts | 51° |
| 2026-04-25 22:12 | 45.74855 | 11.30305 | 40062 ft | 481 kts | 52° |
| 2026-04-25 22:12 | 45.78067 | 11.36810 | 40094 ft | 481 kts | 52° |
| 2026-04-25 22:13 | 45.82576 | 11.45971 | 40073 ft | 481 kts | 52° |
| 2026-04-25 22:13 | 45.86406 | 11.53777 | 40088 ft | 481 kts | 52° |
| 2026-04-25 22:14 | 45.90251 | 11.61637 | 40063 ft | 481 kts | 52° |
| 2026-04-25 22:14 | 45.94089 | 11.69504 | 40063 ft | 480 kts | 52° |
| 2026-04-25 22:15 | 45.97919 | 11.77379 | 40072 ft | 481 kts | 52° |
| 2026-04-25 22:16 | 46.03662 | 11.89221 | 40053 ft | 481 kts | 52° |
| 2026-04-25 22:16 | 46.07486 | 11.97133 | 40059 ft | 481 kts | 52° |
| 2026-04-25 22:17 | 46.11310 | 12.05070 | 40050 ft | 482 kts | 52° |
| 2026-04-25 22:17 | 46.15133 | 12.13027 | 40052 ft | 483 kts | 52° |
| 2026-04-25 22:18 | 46.18955 | 12.21002 | 40052 ft | 483 kts | 52° |
| 2026-04-25 22:18 | 46.22767 | 12.28985 | 40051 ft | 483 kts | 52° |
| 2026-04-25 22:19 | 46.26547 | 12.36920 | 40055 ft | 483 kts | 52° |
| 2026-04-25 22:19 | 46.30356 | 12.44935 | 40068 ft | 482 kts | 52° |
| 2026-04-25 22:20 | 46.34156 | 12.52953 | 40067 ft | 483 kts | 52° |
| 2026-04-25 22:20 | 46.37956 | 12.61001 | 40064 ft | 484 kts | 52° |
| 2026-04-25 22:21 | 46.41753 | 12.69072 | 40060 ft | 485 kts | 52° |
| 2026-04-25 22:21 | 46.45548 | 12.77151 | 40062 ft | 485 kts | 52° |
| 2026-04-25 22:22 | 46.48849 | 12.85724 | 40058 ft | 488 kts | 61° |
| 2026-04-25 22:22 | 46.51614 | 12.94662 | 40066 ft | 488 kts | 64° |
| 2026-04-25 22:23 | 46.54256 | 13.03763 | 40067 ft | 489 kts | 64° |
| 2026-04-25 22:23 | 46.56887 | 13.12873 | 40074 ft | 489 kts | 64° |
| 2026-04-25 22:24 | 46.59533 | 13.21978 | 40072 ft | 489 kts | 64° |
| 2026-04-25 22:24 | 46.62187 | 13.31099 | 40076 ft | 489 kts | 64° |
| 2026-04-25 22:25 | 46.64824 | 13.40198 | 40067 ft | 488 kts | 64° |
| 2026-04-25 22:25 | 46.67454 | 13.49308 | 40080 ft | 488 kts | 64° |
| 2026-04-25 22:26 | 46.70080 | 13.58444 | 40074 ft | 488 kts | 64° |
| 2026-04-25 22:26 | 46.72697 | 13.67576 | 40068 ft | 488 kts | 64° |
| 2026-04-25 22:27 | 46.75291 | 13.76660 | 40067 ft | 488 kts | 64° |
| 2026-04-25 22:27 | 46.76593 | 13.81235 | 39871 ft | 489 kts | 64° |
| 2026-04-25 22:27 | 46.77893 | 13.85813 | 39636 ft | 487 kts | 64° |
| 2026-04-25 22:27 | 46.79186 | 13.90381 | 39401 ft | 487 kts | 64° |
| 2026-04-25 22:28 | 46.80477 | 13.94947 | 39166 ft | 487 kts | 64° |
| 2026-04-25 22:28 | 46.81769 | 13.99518 | 38947 ft | 487 kts | 64° |
| 2026-04-25 22:28 | 46.83060 | 14.04097 | 38720 ft | 488 kts | 64° |
| 2026-04-25 22:28 | 46.84354 | 14.08689 | 38425 ft | 488 kts | 64° |
| 2026-04-25 22:29 | 46.85645 | 14.13281 | 38146 ft | 488 kts | 64° |
| 2026-04-25 22:29 | 46.86930 | 14.17864 | 37870 ft | 488 kts | 64° |
| 2026-04-25 22:29 | 46.88213 | 14.22450 | 37593 ft | 487 kts | 64° |
| 2026-04-25 22:30 | 46.90772 | 14.31625 | 37073 ft | 487 kts | 65° |
| 2026-04-25 22:30 | 46.92046 | 14.36202 | 36820 ft | 485 kts | 65° |
| 2026-04-25 22:30 | 46.93320 | 14.40785 | 36550 ft | 484 kts | 65° |
| 2026-04-25 22:30 | 46.94158 | 14.43807 | 36385 ft | 484 kts | 65° |
| 2026-04-25 22:31 | 46.95851 | 14.49917 | 36052 ft | 485 kts | 65° |
| 2026-04-25 22:31 | 46.97115 | 14.54492 | 35800 ft | 485 kts | 65° |
| 2026-04-25 22:31 | 46.98359 | 14.59008 | 35547 ft | 484 kts | 65° |
| 2026-04-25 22:31 | 46.99617 | 14.63584 | 35304 ft | 483 kts | 65° |
| 2026-04-25 22:32 | 47.00870 | 14.68150 | 35060 ft | 483 kts | 65° |
| 2026-04-25 22:32 | 47.02122 | 14.72721 | 34818 ft | 483 kts | 65° |
| 2026-04-25 22:32 | 47.03371 | 14.77288 | 34570 ft | 483 kts | 65° |
| 2026-04-25 22:32 | 47.04617 | 14.81850 | 34330 ft | 482 kts | 65° |
| 2026-04-25 22:33 | 47.05863 | 14.86416 | 34095 ft | 482 kts | 65° |
| 2026-04-25 22:33 | 47.07108 | 14.90989 | 33833 ft | 481 kts | 65° |
| 2026-04-25 22:33 | 47.08341 | 14.95525 | 33176 ft | 479 kts | 65° |
| 2026-04-25 22:33 | 47.09578 | 15.00090 | 32357 ft | 482 kts | 66° |
| 2026-04-25 22:34 | 47.10805 | 15.04625 | 31533 ft | 484 kts | 66° |
| 2026-04-25 22:34 | 47.12048 | 15.09234 | 30704 ft | 488 kts | 66° |
| 2026-04-25 22:34 | 47.13300 | 15.13881 | 29773 ft | 491 kts | 66° |
| 2026-04-25 22:34 | 47.14549 | 15.18535 | 29187 ft | 486 kts | 66° |
| 2026-04-25 22:35 | 47.15775 | 15.23121 | 28629 ft | 479 kts | 66° |
| 2026-04-25 22:35 | 47.16986 | 15.27656 | 28063 ft | 474 kts | 66° |
| 2026-04-25 22:35 | 47.18184 | 15.32143 | 27485 ft | 469 kts | 66° |
| 2026-04-25 22:35 | 47.19367 | 15.36584 | 26944 ft | 464 kts | 66° |
| 2026-04-25 22:36 | 47.20537 | 15.40985 | 26349 ft | 461 kts | 66° |
| 2026-04-25 22:36 | 47.21698 | 15.45355 | 25790 ft | 457 kts | 66° |
| 2026-04-25 22:36 | 47.22850 | 15.49698 | 25234 ft | 454 kts | 66° |
| 2026-04-25 22:36 | 47.23995 | 15.54020 | 24657 ft | 452 kts | 66° |
| 2026-04-25 22:37 | 47.25135 | 15.58332 | 24083 ft | 450 kts | 66° |
| 2026-04-25 22:37 | 47.26250 | 15.62558 | 23508 ft | 447 kts | 66° |
| 2026-04-25 22:37 | 47.27373 | 15.66819 | 22889 ft | 445 kts | 66° |
| 2026-04-25 22:37 | 47.28484 | 15.71046 | 22310 ft | 440 kts | 66° |
| 2026-04-25 22:38 | 47.29582 | 15.75236 | 21744 ft | 436 kts | 66° |
| 2026-04-25 22:38 | 47.30668 | 15.79389 | 21179 ft | 432 kts | 66° |
| 2026-04-25 22:38 | 47.31743 | 15.83507 | 20633 ft | 429 kts | 66° |
| 2026-04-25 22:38 | 47.32808 | 15.87593 | 20079 ft | 426 kts | 66° |
| 2026-04-25 22:39 | 47.34066 | 15.91514 | 19549 ft | 422 kts | 55° |
| 2026-04-25 22:39 | 47.35805 | 15.94995 | 19200 ft | 423 kts | 46° |
| 2026-04-25 22:39 | 47.37732 | 15.98259 | 18961 ft | 417 kts | 44° |
| 2026-04-25 22:39 | 47.39650 | 16.01389 | 18693 ft | 405 kts | 43° |
| 2026-04-25 22:40 | 47.41530 | 16.04421 | 18413 ft | 394 kts | 43° |
| 2026-04-25 22:40 | 47.43366 | 16.07368 | 18090 ft | 385 kts | 43° |
| 2026-04-25 22:40 | 47.45164 | 16.10246 | 17777 ft | 376 kts | 43° |
| 2026-04-25 22:40 | 47.46924 | 16.13065 | 17459 ft | 368 kts | 43° |
| 2026-04-25 22:41 | 47.48649 | 16.15827 | 17060 ft | 363 kts | 42° |
| 2026-04-25 22:41 | 47.50334 | 16.18525 | 16654 ft | 360 kts | 43° |
| 2026-04-25 22:41 | 47.52022 | 16.21230 | 16206 ft | 356 kts | 43° |
| 2026-04-25 22:41 | 47.53700 | 16.23922 | 15791 ft | 354 kts | 43° |
| 2026-04-25 22:42 | 47.55360 | 16.26590 | 15366 ft | 350 kts | 43° |
| 2026-04-25 22:42 | 47.57014 | 16.29248 | 14924 ft | 348 kts | 43° |
| 2026-04-25 22:42 | 47.58651 | 16.31882 | 14500 ft | 347 kts | 43° |
| 2026-04-25 22:42 | 47.59732 | 16.33623 | 14229 ft | 345 kts | 43° |
| 2026-04-25 22:43 | 47.61348 | 16.36230 | 13786 ft | 343 kts | 43° |
| 2026-04-25 22:43 | 47.62962 | 16.38835 | 13309 ft | 341 kts | 43° |
| 2026-04-25 22:43 | 47.64557 | 16.41413 | 12881 ft | 338 kts | 43° |
| 2026-04-25 22:43 | 47.66139 | 16.43972 | 12428 ft | 335 kts | 43° |
| 2026-04-25 22:44 | 47.67707 | 16.46510 | 11972 ft | 332 kts | 43° |
| 2026-04-25 22:44 | 47.69267 | 16.49036 | 11546 ft | 330 kts | 43° |
| 2026-04-25 22:44 | 47.70807 | 16.51533 | 11131 ft | 327 kts | 44° |
| 2026-04-25 22:44 | 47.72335 | 16.54016 | 10659 ft | 324 kts | 44° |
| 2026-04-25 22:45 | 47.73852 | 16.56479 | 10289 ft | 320 kts | 44° |
| 2026-04-25 22:45 | 47.75332 | 16.58889 | 9996 ft | 309 kts | 44° |
| 2026-04-25 22:45 | 47.76743 | 16.61195 | 9658 ft | 295 kts | 44° |
| 2026-04-25 22:45 | 47.78098 | 16.63410 | 9309 ft | 283 kts | 44° |
| 2026-04-25 22:46 | 47.79382 | 16.65507 | 8976 ft | 272 kts | 44° |
| 2026-04-25 22:46 | 47.80633 | 16.67552 | 8629 ft | 263 kts | 44° |
| 2026-04-25 22:46 | 47.81845 | 16.69532 | 8288 ft | 255 kts | 44° |
| 2026-04-25 22:46 | 47.83033 | 16.71471 | 7967 ft | 252 kts | 44° |
| 2026-04-25 22:47 | 47.84217 | 16.73404 | 7640 ft | 252 kts | 44° |
| 2026-04-25 22:47 | 47.85399 | 16.75338 | 7316 ft | 253 kts | 42° |
| 2026-04-25 22:47 | 47.86579 | 16.77267 | 7101 ft | 250 kts | 42° |
| 2026-04-25 22:47 | 47.87746 | 16.79180 | 6868 ft | 248 kts | 42° |
| 2026-04-25 22:48 | 47.88848 | 16.81159 | 6616 ft | 250 kts | 51° |
| 2026-04-25 22:48 | 47.89762 | 16.83366 | 6361 ft | 252 kts | 61° |
| 2026-04-25 22:48 | 47.90060 | 16.85949 | 6096 ft | 259 kts | 94° |
| 2026-04-25 22:48 | 47.89522 | 16.88515 | 5854 ft | 261 kts | 112° |
| 2026-04-25 22:49 | 47.88747 | 16.90934 | 5608 ft | 262 kts | 115° |
| 2026-04-25 22:49 | 47.87922 | 16.93362 | 5353 ft | 263 kts | 115° |
| 2026-04-25 22:49 | 47.87093 | 16.95792 | 5104 ft | 263 kts | 115° |
| 2026-04-25 22:49 | 47.86269 | 16.98226 | 4861 ft | 263 kts | 115° |
| 2026-04-25 22:50 | 47.85462 | 17.00668 | 4604 ft | 263 kts | 111° |
| 2026-04-25 22:50 | 47.84990 | 17.03259 | 4339 ft | 257 kts | 89° |
| 2026-04-25 22:50 | 47.85207 | 17.05830 | 4096 ft | 247 kts | 63° |
| 2026-04-25 22:50 | 47.86062 | 17.07953 | 3990 ft | 235 kts | 39° |
| 2026-04-25 22:51 | 47.87325 | 17.09412 | 3985 ft | 228 kts | 23° |
| 2026-04-25 22:51 | 47.88728 | 17.10485 | 3988 ft | 226 kts | 16° |
| 2026-04-25 22:51 | 47.90217 | 17.11091 | 3997 ft | 219 kts | 359° |
| 2026-04-25 22:51 | 47.91696 | 17.10909 | 3983 ft | 211 kts | 340° |
| 2026-04-25 22:52 | 47.92989 | 17.09962 | 3999 ft | 206 kts | 321° |
| 2026-04-25 22:52 | 47.94010 | 17.08476 | 3981 ft | 206 kts | 308° |
| 2026-04-25 22:52 | 47.94813 | 17.06716 | 3979 ft | 202 kts | 301° |
| 2026-04-25 22:52 | 47.95246 | 17.05516 | 3981 ft | 193 kts | 298° |
| 2026-04-25 22:53 | 47.95986 | 17.03252 | 3978 ft | 173 kts | 297° |
| 2026-04-25 22:53 | 47.96496 | 17.01669 | 3982 ft | 166 kts | 297° |
| 2026-04-25 22:53 | 47.96974 | 17.00184 | 3983 ft | 151 kts | 297° |
| 2026-04-25 22:53 | 47.97419 | 16.98808 | 3985 ft | 145 kts | 297° |
| 2026-04-25 22:54 | 47.97859 | 16.97457 | 3985 ft | 144 kts | 298° |
| 2026-04-25 22:54 | 47.98299 | 16.96117 | 3983 ft | 144 kts | 297° |
| 2026-04-25 22:54 | 47.98742 | 16.94776 | 3983 ft | 144 kts | 298° |
| 2026-04-25 22:54 | 47.99185 | 16.93434 | 3985 ft | 144 kts | 298° |
| 2026-04-25 22:55 | 47.99625 | 16.92098 | 3984 ft | 143 kts | 298° |
| 2026-04-25 22:55 | 48.00063 | 16.90766 | 4002 ft | 143 kts | 298° |
| 2026-04-25 22:55 | 48.00499 | 16.89435 | 3987 ft | 143 kts | 298° |
| 2026-04-25 22:55 | 48.00935 | 16.88102 | 3984 ft | 143 kts | 298° |
| 2026-04-25 22:56 | 48.01370 | 16.86768 | 4000 ft | 143 kts | 298° |
| 2026-04-25 22:56 | 48.01806 | 16.85430 | 3997 ft | 143 kts | 298° |
| 2026-04-25 22:56 | 48.02242 | 16.84093 | 4005 ft | 143 kts | 298° |
| 2026-04-25 22:56 | 48.02679 | 16.82754 | 3997 ft | 143 kts | 298° |
| 2026-04-25 22:57 | 48.03116 | 16.81419 | 3998 ft | 143 kts | 298° |
| 2026-04-25 22:57 | 48.03555 | 16.80083 | 3890 ft | 143 kts | 297° |
| 2026-04-25 22:57 | 48.03988 | 16.78762 | 3701 ft | 143 kts | 297° |
| 2026-04-25 22:57 | 48.04425 | 16.77423 | 3488 ft | 143 kts | 297° |
| 2026-04-25 22:58 | 48.04859 | 16.76090 | 3293 ft | 142 kts | 297° |
| 2026-04-25 22:58 | 48.05290 | 16.74771 | 3110 ft | 140 kts | 298° |
| 2026-04-25 22:58 | 48.05714 | 16.73473 | 2915 ft | 138 kts | 297° |
| 2026-04-25 22:58 | 48.06134 | 16.72184 | 2744 ft | 138 kts | 297° |
| 2026-04-25 22:59 | 48.06555 | 16.70895 | 2542 ft | 138 kts | 297° |
| 2026-04-25 22:59 | 48.06977 | 16.69600 | 2369 ft | 139 kts | 297° |
| 2026-04-25 22:59 | 48.07402 | 16.68298 | 2175 ft | 139 kts | 296° |
| 2026-04-25 22:59 | 48.07827 | 16.66993 | 2000 ft | 139 kts | 297° |
| 2026-04-25 23:00 | 48.08235 | 16.65741 | 1811 ft | 128 kts | 297° |
| 2026-04-25 23:00 | 48.08613 | 16.64589 | 1717 ft | 121 kts | 298° |
| 2026-04-25 23:00 | 48.08984 | 16.63465 | 1521 ft | 120 kts | 295° |
| 2026-04-25 23:00 | 48.09359 | 16.62341 | 1376 ft | 122 kts | 296° |
| 2026-04-25 23:01 | 48.09733 | 16.61181 | 1170 ft | 126 kts | 295° |
| 2026-04-25 23:01 | 48.10114 | 16.60000 | 998 ft | 125 kts | 296° |
| 2026-04-25 23:01 | 48.10491 | 16.58846 | 823 ft | 121 kts | 293° |
| 2026-04-25 23:01 | 48.10854 | 16.57726 | 670 ft | 118 kts | 292° |
| 2026-04-25 23:02 | 48.11190 | 16.56666 | 623 ft | 98 kts | 296° |
| 2026-04-25 23:02 | 48.11408 | 16.56009 | 628 ft | 52 kts | 296° |
| 2026-04-25 23:02 | 48.11560 | 16.55566 | 622 ft | 44 kts | 301° |
| 2026-04-25 23:02 | 48.11736 | 16.55237 | 625 ft | 33 kts | 316° |
| 2026-04-25 23:03 | 48.11848 | 16.55144 | 626 ft | 10 kts | 1° |
| 2026-04-25 23:03 | 48.11876 | 16.55165 | 624 ft | 3 kts | 52° |
| 2026-04-25 23:03 | 48.11878 | 16.55201 | 623 ft | 5 kts | 95° |
| 2026-04-25 23:03 | 48.11861 | 16.55272 | 626 ft | 10 kts | 114° |
| 2026-04-25 23:04 | 48.11824 | 16.55386 | 625 ft | 15 kts | 116° |
| 2026-04-25 23:04 | 48.11791 | 16.55488 | 621 ft | 18 kts | 115° |
| 2026-04-25 23:04 | 48.11709 | 16.55736 | 625 ft | 21 kts | 115° |
| 2026-04-25 23:04 | 48.11643 | 16.55944 | 626 ft | 23 kts | 116° |
| 2026-04-25 23:05 | 48.11571 | 16.56161 | 623 ft | 24 kts | 116° |
| 2026-04-25 23:05 | 48.11498 | 16.56388 | 624 ft | 25 kts | 116° |
| 2026-04-25 23:05 | 48.11421 | 16.56623 | 623 ft | 26 kts | 116° |
| 2026-04-25 23:05 | 48.11348 | 16.56848 | 620 ft | 20 kts | 116° |
| 2026-04-25 23:06 | 48.11285 | 16.57040 | 626 ft | 21 kts | 116° |
| 2026-04-25 23:06 | 48.11234 | 16.57194 | 625 ft | 13 kts | 116° |
| 2026-04-25 23:06 | 48.11258 | 16.57291 | 622 ft | 11 kts | 28° |
| 2026-04-25 23:06 | 48.11330 | 16.57344 | 622 ft | 12 kts | 25° |
| 2026-04-25 23:07 | 48.11412 | 16.57403 | 622 ft | 14 kts | 27° |
| 2026-04-25 23:07 | 48.11504 | 16.57462 | 619 ft | 15 kts | 13° |
| 2026-04-25 23:07 | 48.11605 | 16.57433 | 624 ft | 15 kts | 343° |
| 2026-04-25 23:07 | 48.11711 | 16.57386 | 626 ft | 15 kts | 343° |
| 2026-04-25 23:08 | 48.11801 | 16.57342 | 623 ft | 10 kts | 332° |
| 2026-04-25 23:08 | 48.11822 | 16.57282 | 628 ft | 1 kts | 261° |
| 2026-04-25 23:08 | 48.11806 | 16.57266 | 628 ft | 5 kts | 201° |
| 2026-04-25 23:08 | 48.11768 | 16.57243 | 616 ft | 6 kts | 206° |
| 2026-04-25 23:09 | 48.11740 | 16.57223 | 624 ft | 2 kts | 206° |
| 2026-04-25 23:09 | 48.11736 | 16.57220 | 625 ft | 0 kts | 205° |